<?xml version="1.0" encoding="UTF-8" standalone="no" ?>
<gpx xmlns="http://www.topografix.com/GPX/1/1" xmlns:xsi="http://www.w3.org/2001/XMLSchema-instance" xsi:schemaLocation="http://www.topografix.com/GPX/1/1 http://www.topografix.com/GPX/1/1/gpx.xsd" version="1.1" creator="VisuGPX - https://www.visugpx.com">
  <metadata>
    <name>252011</name>
    <desc><![CDATA[Balade vendéenne 5]]></desc>
  </metadata>
  <trk>
    <name><![CDATA[ACTIVE LOG091326]]></name>
    <trkseg>
      <trkpt lat="46.82219" lon="-2.13057">
        <ele>13.035</ele>
        <time>2011-08-11T07:13:26Z</time>
      </trkpt>
      <trkpt lat="46.82219" lon="-2.13057">
        <ele>13.035</ele>
        <time>2011-08-11T07:13:33Z</time>
      </trkpt>
      <trkpt lat="46.82219" lon="-2.13057">
        <ele>13.212</ele>
        <time>2011-08-11T07:14:08Z</time>
      </trkpt>
      <trkpt lat="46.8218" lon="-2.13102">
        <ele>14.012</ele>
        <time>2011-08-11T07:14:28Z</time>
      </trkpt>
      <trkpt lat="46.82176" lon="-2.13111">
        <ele>11.711</ele>
        <time>2011-08-11T07:14:42Z</time>
      </trkpt>
    </trkseg>
  </trk>
  <trk>
    <name><![CDATA[ACTIVE LOG091448]]></name>
    <trkseg>
      <trkpt lat="46.82176" lon="-2.13111">
        <ele>10.732</ele>
        <time>2011-08-11T07:14:46Z</time>
      </trkpt>
      <trkpt lat="46.82176" lon="-2.13111">
        <ele>10.943</ele>
        <time>2011-08-11T07:14:49Z</time>
      </trkpt>
      <trkpt lat="46.82147" lon="-2.13095">
        <ele>7.768</ele>
        <time>2011-08-11T07:15:00Z</time>
      </trkpt>
      <trkpt lat="46.82094" lon="-2.13062">
        <ele>7.63</ele>
        <time>2011-08-11T07:15:11Z</time>
      </trkpt>
      <trkpt lat="46.82007" lon="-2.12958">
        <ele>5.705</ele>
        <time>2011-08-11T07:15:26Z</time>
      </trkpt>
      <trkpt lat="46.81867" lon="-2.12778">
        <ele>5.452</ele>
        <time>2011-08-11T07:15:54Z</time>
      </trkpt>
      <trkpt lat="46.81718" lon="-2.12587">
        <ele>4.672</ele>
        <time>2011-08-11T07:16:24Z</time>
      </trkpt>
      <trkpt lat="46.81543" lon="-2.12358">
        <ele>4.277</ele>
        <time>2011-08-11T07:17:00Z</time>
      </trkpt>
      <trkpt lat="46.81462" lon="-2.12211">
        <ele>4.134</ele>
        <time>2011-08-11T07:17:20Z</time>
      </trkpt>
      <trkpt lat="46.81358" lon="-2.12019">
        <ele>3.917</ele>
        <time>2011-08-11T07:17:46Z</time>
      </trkpt>
      <trkpt lat="46.81226" lon="-2.11763">
        <ele>4.566</ele>
        <time>2011-08-11T07:18:21Z</time>
      </trkpt>
      <trkpt lat="46.81185" lon="-2.11676">
        <ele>5.062</ele>
        <time>2011-08-11T07:18:33Z</time>
      </trkpt>
      <trkpt lat="46.8118" lon="-2.11663">
        <ele>5.2</ele>
        <time>2011-08-11T07:18:37Z</time>
      </trkpt>
      <trkpt lat="46.81164" lon="-2.11617">
        <ele>4.772</ele>
        <time>2011-08-11T07:18:42Z</time>
      </trkpt>
      <trkpt lat="46.81108" lon="-2.11438">
        <ele>4.63</ele>
        <time>2011-08-11T07:19:04Z</time>
      </trkpt>
      <trkpt lat="46.81039" lon="-2.11215">
        <ele>4.406</ele>
        <time>2011-08-11T07:19:30Z</time>
      </trkpt>
      <trkpt lat="46.8093" lon="-2.10856">
        <ele>3.952</ele>
        <time>2011-08-11T07:20:10Z</time>
      </trkpt>
      <trkpt lat="46.80865" lon="-2.10636">
        <ele>4.227</ele>
        <time>2011-08-11T07:20:34Z</time>
      </trkpt>
      <trkpt lat="46.8082" lon="-2.10491">
        <ele>3.757</ele>
        <time>2011-08-11T07:20:52Z</time>
      </trkpt>
      <trkpt lat="46.80736" lon="-2.10212">
        <ele>4.219</ele>
        <time>2011-08-11T07:21:20Z</time>
      </trkpt>
      <trkpt lat="46.80728" lon="-2.10185">
        <ele>4.198</ele>
        <time>2011-08-11T07:21:23Z</time>
      </trkpt>
      <trkpt lat="46.80671" lon="-2.09995">
        <ele>3.897</ele>
        <time>2011-08-11T07:21:43Z</time>
      </trkpt>
      <trkpt lat="46.80561" lon="-2.09638">
        <ele>3.992</ele>
        <time>2011-08-11T07:22:21Z</time>
      </trkpt>
      <trkpt lat="46.80459" lon="-2.09295">
        <ele>4.55</ele>
        <time>2011-08-11T07:22:58Z</time>
      </trkpt>
      <trkpt lat="46.80392" lon="-2.09067">
        <ele>3.795</ele>
        <time>2011-08-11T07:23:22Z</time>
      </trkpt>
      <trkpt lat="46.80314" lon="-2.08806">
        <ele>3.93</ele>
        <time>2011-08-11T07:23:50Z</time>
      </trkpt>
      <trkpt lat="46.80236" lon="-2.08539">
        <ele>4.306</ele>
        <time>2011-08-11T07:24:18Z</time>
      </trkpt>
      <trkpt lat="46.80152" lon="-2.08255">
        <ele>3.862</ele>
        <time>2011-08-11T07:24:47Z</time>
      </trkpt>
      <trkpt lat="46.80099" lon="-2.08084">
        <ele>3.7</ele>
        <time>2011-08-11T07:25:08Z</time>
      </trkpt>
      <trkpt lat="46.80004" lon="-2.07758">
        <ele>2.835</ele>
        <time>2011-08-11T07:25:39Z</time>
      </trkpt>
      <trkpt lat="46.79929" lon="-2.07507">
        <ele>4.085</ele>
        <time>2011-08-11T07:26:05Z</time>
      </trkpt>
      <trkpt lat="46.7988" lon="-2.07359">
        <ele>4.138</ele>
        <time>2011-08-11T07:26:23Z</time>
      </trkpt>
      <trkpt lat="46.7981" lon="-2.07214">
        <ele>3.996</ele>
        <time>2011-08-11T07:26:41Z</time>
      </trkpt>
      <trkpt lat="46.79692" lon="-2.07041">
        <ele>5.379</ele>
        <time>2011-08-11T07:27:06Z</time>
      </trkpt>
      <trkpt lat="46.7968" lon="-2.07024">
        <ele>5.576</ele>
        <time>2011-08-11T07:27:09Z</time>
      </trkpt>
      <trkpt lat="46.79665" lon="-2.06989">
        <ele>5.709</ele>
        <time>2011-08-11T07:27:15Z</time>
      </trkpt>
      <trkpt lat="46.79629" lon="-2.06943">
        <ele>5.336</ele>
        <time>2011-08-11T07:27:23Z</time>
      </trkpt>
      <trkpt lat="46.79515" lon="-2.06785">
        <ele>5.634</ele>
        <time>2011-08-11T07:27:49Z</time>
      </trkpt>
      <trkpt lat="46.79498" lon="-2.06766">
        <ele>5.663</ele>
        <time>2011-08-11T07:27:54Z</time>
      </trkpt>
      <trkpt lat="46.79323" lon="-2.06737">
        <ele>6.725</ele>
        <time>2011-08-11T07:28:20Z</time>
      </trkpt>
      <trkpt lat="46.79235" lon="-2.0673">
        <ele>9.76</ele>
        <time>2011-08-11T07:28:37Z</time>
      </trkpt>
      <trkpt lat="46.79222" lon="-2.06725">
        <ele>9.621</ele>
        <time>2011-08-11T07:28:40Z</time>
      </trkpt>
      <trkpt lat="46.79187" lon="-2.06702">
        <ele>10.09</ele>
        <time>2011-08-11T07:28:47Z</time>
      </trkpt>
      <trkpt lat="46.79154" lon="-2.0669">
        <ele>11.151</ele>
        <time>2011-08-11T07:28:53Z</time>
      </trkpt>
      <trkpt lat="46.79163" lon="-2.06689">
        <ele>12.143</ele>
        <time>2011-08-11T07:28:57Z</time>
      </trkpt>
      <trkpt lat="46.79146" lon="-2.06685">
        <ele>11.769</ele>
        <time>2011-08-11T07:29:01Z</time>
      </trkpt>
      <trkpt lat="46.79146" lon="-2.06685">
        <ele>10.589</ele>
        <time>2011-08-11T07:29:04Z</time>
      </trkpt>
      <trkpt lat="46.7912" lon="-2.06554">
        <ele>11.319</ele>
        <time>2011-08-11T07:29:17Z</time>
      </trkpt>
      <trkpt lat="46.79105" lon="-2.06514">
        <ele>11.519</ele>
        <time>2011-08-11T07:29:23Z</time>
      </trkpt>
      <trkpt lat="46.79095" lon="-2.0649">
        <ele>12.522</ele>
        <time>2011-08-11T07:29:27Z</time>
      </trkpt>
      <trkpt lat="46.79074" lon="-2.06431">
        <ele>11.665</ele>
        <time>2011-08-11T07:29:37Z</time>
      </trkpt>
      <trkpt lat="46.79055" lon="-2.06414">
        <ele>11.575</ele>
        <time>2011-08-11T07:29:41Z</time>
      </trkpt>
      <trkpt lat="46.79046" lon="-2.06387">
        <ele>10.988</ele>
        <time>2011-08-11T07:29:45Z</time>
      </trkpt>
      <trkpt lat="46.79039" lon="-2.06365">
        <ele>10.927</ele>
        <time>2011-08-11T07:29:48Z</time>
      </trkpt>
      <trkpt lat="46.79034" lon="-2.0635">
        <ele>11.196</ele>
        <time>2011-08-11T07:29:55Z</time>
      </trkpt>
      <trkpt lat="46.79019" lon="-2.06263">
        <ele>11.366</ele>
        <time>2011-08-11T07:30:01Z</time>
      </trkpt>
      <trkpt lat="46.78957" lon="-2.06291">
        <ele>10.558</ele>
        <time>2011-08-11T07:30:11Z</time>
      </trkpt>
      <trkpt lat="46.78886" lon="-2.06336">
        <ele>9.293</ele>
        <time>2011-08-11T07:30:24Z</time>
      </trkpt>
      <trkpt lat="46.78809" lon="-2.06384">
        <ele>8.994</ele>
        <time>2011-08-11T07:30:38Z</time>
      </trkpt>
      <trkpt lat="46.78794" lon="-2.06392">
        <ele>8.427</ele>
        <time>2011-08-11T07:30:41Z</time>
      </trkpt>
      <trkpt lat="46.78747" lon="-2.06423">
        <ele>7.262</ele>
        <time>2011-08-11T07:30:51Z</time>
      </trkpt>
      <trkpt lat="46.7873" lon="-2.06433">
        <ele>7.302</ele>
        <time>2011-08-11T07:30:54Z</time>
      </trkpt>
      <trkpt lat="46.78666" lon="-2.06474">
        <ele>6.214</ele>
        <time>2011-08-11T07:31:05Z</time>
      </trkpt>
      <trkpt lat="46.78641" lon="-2.0649">
        <ele>6.013</ele>
        <time>2011-08-11T07:31:11Z</time>
      </trkpt>
      <trkpt lat="46.78633" lon="-2.06495">
        <ele>6.097</ele>
        <time>2011-08-11T07:31:13Z</time>
      </trkpt>
      <trkpt lat="46.78582" lon="-2.06527">
        <ele>5.773</ele>
        <time>2011-08-11T07:31:21Z</time>
      </trkpt>
      <trkpt lat="46.7853" lon="-2.0656">
        <ele>5.231</ele>
        <time>2011-08-11T07:31:29Z</time>
      </trkpt>
      <trkpt lat="46.78495" lon="-2.06583">
        <ele>5.867</ele>
        <time>2011-08-11T07:31:35Z</time>
      </trkpt>
      <trkpt lat="46.78482" lon="-2.06592">
        <ele>5.88</ele>
        <time>2011-08-11T07:31:38Z</time>
      </trkpt>
      <trkpt lat="46.78469" lon="-2.06624">
        <ele>6.59</ele>
        <time>2011-08-11T07:31:43Z</time>
      </trkpt>
      <trkpt lat="46.78461" lon="-2.06629">
        <ele>6.41</ele>
        <time>2011-08-11T07:31:52Z</time>
      </trkpt>
      <trkpt lat="46.78414" lon="-2.06661">
        <ele>5.941</ele>
        <time>2011-08-11T07:32:02Z</time>
      </trkpt>
      <trkpt lat="46.78398" lon="-2.06672">
        <ele>5.628</ele>
        <time>2011-08-11T07:32:05Z</time>
      </trkpt>
      <trkpt lat="46.78351" lon="-2.06702">
        <ele>6.091</ele>
        <time>2011-08-11T07:32:14Z</time>
      </trkpt>
      <trkpt lat="46.78331" lon="-2.06714">
        <ele>6.61</ele>
        <time>2011-08-11T07:32:18Z</time>
      </trkpt>
      <trkpt lat="46.78229" lon="-2.06757">
        <ele>7.332</ele>
        <time>2011-08-11T07:32:36Z</time>
      </trkpt>
      <trkpt lat="46.78173" lon="-2.06791">
        <ele>8.558</ele>
        <time>2011-08-11T07:32:47Z</time>
      </trkpt>
      <trkpt lat="46.78172" lon="-2.06792">
        <ele>8.673</ele>
        <time>2011-08-11T07:32:50Z</time>
      </trkpt>
      <trkpt lat="46.78148" lon="-2.06801">
        <ele>9.115</ele>
        <time>2011-08-11T07:32:55Z</time>
      </trkpt>
      <trkpt lat="46.78146" lon="-2.06792">
        <ele>9.18</ele>
        <time>2011-08-11T07:32:58Z</time>
      </trkpt>
      <trkpt lat="46.78136" lon="-2.06777">
        <ele>9.346</ele>
        <time>2011-08-11T07:33:01Z</time>
      </trkpt>
      <trkpt lat="46.78102" lon="-2.06722">
        <ele>8.497</ele>
        <time>2011-08-11T07:33:12Z</time>
      </trkpt>
      <trkpt lat="46.78055" lon="-2.06631">
        <ele>9.397</ele>
        <time>2011-08-11T07:33:27Z</time>
      </trkpt>
      <trkpt lat="46.7803" lon="-2.0661">
        <ele>10.149</ele>
        <time>2011-08-11T07:33:37Z</time>
      </trkpt>
      <trkpt lat="46.7803" lon="-2.0661">
        <ele>9.351</ele>
        <time>2011-08-11T07:35:46Z</time>
      </trkpt>
      <trkpt lat="46.78027" lon="-2.06604">
        <ele>9.178</ele>
        <time>2011-08-11T07:35:49Z</time>
      </trkpt>
      <trkpt lat="46.7801" lon="-2.06618">
        <ele>9.025</ele>
        <time>2011-08-11T07:35:53Z</time>
      </trkpt>
      <trkpt lat="46.78015" lon="-2.06609">
        <ele>9.328</ele>
        <time>2011-08-11T07:35:57Z</time>
      </trkpt>
      <trkpt lat="46.78009" lon="-2.06599">
        <ele>8.936</ele>
        <time>2011-08-11T07:36:01Z</time>
      </trkpt>
      <trkpt lat="46.78014" lon="-2.0658">
        <ele>8.796</ele>
        <time>2011-08-11T07:36:03Z</time>
      </trkpt>
      <trkpt lat="46.77996" lon="-2.06558">
        <ele>8.282</ele>
        <time>2011-08-11T07:36:07Z</time>
      </trkpt>
      <trkpt lat="46.77958" lon="-2.06502">
        <ele>8.028</ele>
        <time>2011-08-11T07:36:17Z</time>
      </trkpt>
      <trkpt lat="46.77953" lon="-2.0648">
        <ele>7.757</ele>
        <time>2011-08-11T07:36:21Z</time>
      </trkpt>
      <trkpt lat="46.77949" lon="-2.06427">
        <ele>8.319</ele>
        <time>2011-08-11T07:36:27Z</time>
      </trkpt>
      <trkpt lat="46.77944" lon="-2.06397">
        <ele>7.619</ele>
        <time>2011-08-11T07:36:32Z</time>
      </trkpt>
      <trkpt lat="46.77914" lon="-2.06371">
        <ele>7.472</ele>
        <time>2011-08-11T07:36:35Z</time>
      </trkpt>
      <trkpt lat="46.77883" lon="-2.06359">
        <ele>7.845</ele>
        <time>2011-08-11T07:36:40Z</time>
      </trkpt>
      <trkpt lat="46.77867" lon="-2.06343">
        <ele>7.272</ele>
        <time>2011-08-11T07:36:44Z</time>
      </trkpt>
      <trkpt lat="46.77829" lon="-2.06278">
        <ele>8.008</ele>
        <time>2011-08-11T07:36:54Z</time>
      </trkpt>
      <trkpt lat="46.77762" lon="-2.06163">
        <ele>9.427</ele>
        <time>2011-08-11T07:37:12Z</time>
      </trkpt>
      <trkpt lat="46.77737" lon="-2.06121">
        <ele>8.695</ele>
        <time>2011-08-11T07:37:23Z</time>
      </trkpt>
      <trkpt lat="46.77674" lon="-2.06026">
        <ele>7.982</ele>
        <time>2011-08-11T07:37:38Z</time>
      </trkpt>
      <trkpt lat="46.77588" lon="-2.05891">
        <ele>7.906</ele>
        <time>2011-08-11T07:38:03Z</time>
      </trkpt>
      <trkpt lat="46.77483" lon="-2.05751">
        <ele>9.257</ele>
        <time>2011-08-11T07:38:21Z</time>
      </trkpt>
      <trkpt lat="46.77408" lon="-2.05639">
        <ele>8.278</ele>
        <time>2011-08-11T07:38:39Z</time>
      </trkpt>
      <trkpt lat="46.7734" lon="-2.05545">
        <ele>8.328</ele>
        <time>2011-08-11T07:38:54Z</time>
      </trkpt>
      <trkpt lat="46.77268" lon="-2.05451">
        <ele>8.75</ele>
        <time>2011-08-11T07:39:11Z</time>
      </trkpt>
      <trkpt lat="46.77188" lon="-2.05344">
        <ele>8.817</ele>
        <time>2011-08-11T07:39:29Z</time>
      </trkpt>
      <trkpt lat="46.77123" lon="-2.0525">
        <ele>9.566</ele>
        <time>2011-08-11T07:39:47Z</time>
      </trkpt>
      <trkpt lat="46.77107" lon="-2.0523">
        <ele>9.862</ele>
        <time>2011-08-11T07:39:59Z</time>
      </trkpt>
      <trkpt lat="46.77098" lon="-2.05219">
        <ele>9.577</ele>
        <time>2011-08-11T07:41:37Z</time>
      </trkpt>
      <trkpt lat="46.77083" lon="-2.052">
        <ele>9.21</ele>
        <time>2011-08-11T07:41:44Z</time>
      </trkpt>
      <trkpt lat="46.77078" lon="-2.05195">
        <ele>9.167</ele>
        <time>2011-08-11T07:41:47Z</time>
      </trkpt>
      <trkpt lat="46.77069" lon="-2.05183">
        <ele>9.086</ele>
        <time>2011-08-11T07:41:52Z</time>
      </trkpt>
      <trkpt lat="46.77068" lon="-2.05147">
        <ele>8.265</ele>
        <time>2011-08-11T07:41:56Z</time>
      </trkpt>
      <trkpt lat="46.77121" lon="-2.05013">
        <ele>4.533</ele>
        <time>2011-08-11T07:42:12Z</time>
      </trkpt>
      <trkpt lat="46.77139" lon="-2.04945">
        <ele>3.377</ele>
        <time>2011-08-11T07:42:19Z</time>
      </trkpt>
      <trkpt lat="46.77146" lon="-2.04908">
        <ele>2.953</ele>
        <time>2011-08-11T07:42:23Z</time>
      </trkpt>
      <trkpt lat="46.7714" lon="-2.04875">
        <ele>2.824</ele>
        <time>2011-08-11T07:42:26Z</time>
      </trkpt>
      <trkpt lat="46.77092" lon="-2.04757">
        <ele>2.617</ele>
        <time>2011-08-11T07:42:39Z</time>
      </trkpt>
      <trkpt lat="46.77023" lon="-2.04603">
        <ele>2.682</ele>
        <time>2011-08-11T07:42:57Z</time>
      </trkpt>
      <trkpt lat="46.76896" lon="-2.04418">
        <ele>2.455</ele>
        <time>2011-08-11T07:43:22Z</time>
      </trkpt>
      <trkpt lat="46.76757" lon="-2.04267">
        <ele>3.223</ele>
        <time>2011-08-11T07:43:46Z</time>
      </trkpt>
      <trkpt lat="46.76719" lon="-2.04203">
        <ele>2.677</ele>
        <time>2011-08-11T07:43:54Z</time>
      </trkpt>
      <trkpt lat="46.76632" lon="-2.03972">
        <ele>3.14</ele>
        <time>2011-08-11T07:44:19Z</time>
      </trkpt>
      <trkpt lat="46.76618" lon="-2.03832">
        <ele>5.973</ele>
        <time>2011-08-11T07:44:34Z</time>
      </trkpt>
      <trkpt lat="46.76606" lon="-2.03672">
        <ele>8.413</ele>
        <time>2011-08-11T07:44:51Z</time>
      </trkpt>
      <trkpt lat="46.76551" lon="-2.03493">
        <ele>5.779</ele>
        <time>2011-08-11T07:45:10Z</time>
      </trkpt>
      <trkpt lat="46.76498" lon="-2.03389">
        <ele>4.434</ele>
        <time>2011-08-11T07:45:25Z</time>
      </trkpt>
      <trkpt lat="46.76436" lon="-2.03237">
        <ele>4.885</ele>
        <time>2011-08-11T07:45:39Z</time>
      </trkpt>
      <trkpt lat="46.7638" lon="-2.03075">
        <ele>5.618</ele>
        <time>2011-08-11T07:45:58Z</time>
      </trkpt>
      <trkpt lat="46.76353" lon="-2.02939">
        <ele>5.273</ele>
        <time>2011-08-11T07:46:12Z</time>
      </trkpt>
      <trkpt lat="46.76336" lon="-2.02908">
        <ele>5.36</ele>
        <time>2011-08-11T07:46:16Z</time>
      </trkpt>
      <trkpt lat="46.76248" lon="-2.02832">
        <ele>5.071</ele>
        <time>2011-08-11T07:46:30Z</time>
      </trkpt>
      <trkpt lat="46.76172" lon="-2.02755">
        <ele>5.22</ele>
        <time>2011-08-11T07:46:43Z</time>
      </trkpt>
      <trkpt lat="46.76065" lon="-2.02672">
        <ele>4.266</ele>
        <time>2011-08-11T07:47:01Z</time>
      </trkpt>
      <trkpt lat="46.76031" lon="-2.02628">
        <ele>6.447</ele>
        <time>2011-08-11T07:47:06Z</time>
      </trkpt>
      <trkpt lat="46.75994" lon="-2.02574">
        <ele>6.926</ele>
        <time>2011-08-11T07:47:14Z</time>
      </trkpt>
      <trkpt lat="46.75978" lon="-2.02549">
        <ele>6.403</ele>
        <time>2011-08-11T07:47:18Z</time>
      </trkpt>
      <trkpt lat="46.75959" lon="-2.02531">
        <ele>5.573</ele>
        <time>2011-08-11T07:47:21Z</time>
      </trkpt>
      <trkpt lat="46.7594" lon="-2.02516">
        <ele>4.15</ele>
        <time>2011-08-11T07:47:24Z</time>
      </trkpt>
      <trkpt lat="46.75819" lon="-2.02473">
        <ele>3.411</ele>
        <time>2011-08-11T07:47:40Z</time>
      </trkpt>
      <trkpt lat="46.75798" lon="-2.0247">
        <ele>3.989</ele>
        <time>2011-08-11T07:47:45Z</time>
      </trkpt>
      <trkpt lat="46.75726" lon="-2.02445">
        <ele>3.73</ele>
        <time>2011-08-11T07:47:54Z</time>
      </trkpt>
      <trkpt lat="46.75672" lon="-2.02385">
        <ele>2.71</ele>
        <time>2011-08-11T07:48:03Z</time>
      </trkpt>
      <trkpt lat="46.75578" lon="-2.02293">
        <ele>3.791</ele>
        <time>2011-08-11T07:48:18Z</time>
      </trkpt>
      <trkpt lat="46.75502" lon="-2.02218">
        <ele>4.402</ele>
        <time>2011-08-11T07:48:33Z</time>
      </trkpt>
      <trkpt lat="46.7545" lon="-2.02088">
        <ele>2.98</ele>
        <time>2011-08-11T07:48:48Z</time>
      </trkpt>
      <trkpt lat="46.75355" lon="-2.01966">
        <ele>3.032</ele>
        <time>2011-08-11T07:49:06Z</time>
      </trkpt>
      <trkpt lat="46.75258" lon="-2.01819">
        <ele>3.206</ele>
        <time>2011-08-11T07:49:26Z</time>
      </trkpt>
      <trkpt lat="46.75152" lon="-2.01661">
        <ele>3.818</ele>
        <time>2011-08-11T07:49:47Z</time>
      </trkpt>
      <trkpt lat="46.75139" lon="-2.01641">
        <ele>4.055</ele>
        <time>2011-08-11T07:49:50Z</time>
      </trkpt>
      <trkpt lat="46.75129" lon="-2.01625">
        <ele>4.166</ele>
        <time>2011-08-11T07:49:54Z</time>
      </trkpt>
      <trkpt lat="46.75103" lon="-2.01606">
        <ele>4.514</ele>
        <time>2011-08-11T07:49:58Z</time>
      </trkpt>
      <trkpt lat="46.75103" lon="-2.01596">
        <ele>4.97</ele>
        <time>2011-08-11T07:50:00Z</time>
      </trkpt>
      <trkpt lat="46.75062" lon="-2.01536">
        <ele>3.356</ele>
        <time>2011-08-11T07:50:10Z</time>
      </trkpt>
      <trkpt lat="46.75036" lon="-2.015">
        <ele>4.926</ele>
        <time>2011-08-11T07:50:19Z</time>
      </trkpt>
      <trkpt lat="46.75019" lon="-2.01474">
        <ele>4.129</ele>
        <time>2011-08-11T07:50:29Z</time>
      </trkpt>
      <trkpt lat="46.74996" lon="-2.01436">
        <ele>3.794</ele>
        <time>2011-08-11T07:50:35Z</time>
      </trkpt>
      <trkpt lat="46.74924" lon="-2.01339">
        <ele>5.148</ele>
        <time>2011-08-11T07:50:50Z</time>
      </trkpt>
      <trkpt lat="46.74798" lon="-2.01266">
        <ele>5.176</ele>
        <time>2011-08-11T07:51:10Z</time>
      </trkpt>
      <trkpt lat="46.74681" lon="-2.01196">
        <ele>6.465</ele>
        <time>2011-08-11T07:51:28Z</time>
      </trkpt>
      <trkpt lat="46.74606" lon="-2.01118">
        <ele>5.715</ele>
        <time>2011-08-11T07:51:42Z</time>
      </trkpt>
      <trkpt lat="46.74502" lon="-2.01004">
        <ele>4.373</ele>
        <time>2011-08-11T07:52:01Z</time>
      </trkpt>
      <trkpt lat="46.74361" lon="-2.00878">
        <ele>3.734</ele>
        <time>2011-08-11T07:52:25Z</time>
      </trkpt>
      <trkpt lat="46.74291" lon="-2.00781">
        <ele>2.835</ele>
        <time>2011-08-11T07:52:39Z</time>
      </trkpt>
      <trkpt lat="46.74175" lon="-2.00602">
        <ele>2.192</ele>
        <time>2011-08-11T07:53:01Z</time>
      </trkpt>
      <trkpt lat="46.74076" lon="-2.0044">
        <ele>2.305</ele>
        <time>2011-08-11T07:53:20Z</time>
      </trkpt>
      <trkpt lat="46.74068" lon="-2.00408">
        <ele>2.902</ele>
        <time>2011-08-11T07:53:23Z</time>
      </trkpt>
      <trkpt lat="46.74073" lon="-2.00332">
        <ele>2.707</ele>
        <time>2011-08-11T07:53:30Z</time>
      </trkpt>
      <trkpt lat="46.74119" lon="-2.00144">
        <ele>2.015</ele>
        <time>2011-08-11T07:53:47Z</time>
      </trkpt>
      <trkpt lat="46.74144" lon="-1.99903">
        <ele>3.544</ele>
        <time>2011-08-11T07:54:08Z</time>
      </trkpt>
      <trkpt lat="46.74165" lon="-1.9964">
        <ele>3.689</ele>
        <time>2011-08-11T07:54:30Z</time>
      </trkpt>
      <trkpt lat="46.74207" lon="-1.99471">
        <ele>4.354</ele>
        <time>2011-08-11T07:54:46Z</time>
      </trkpt>
      <trkpt lat="46.74215" lon="-1.99406">
        <ele>3.333</ele>
        <time>2011-08-11T07:54:52Z</time>
      </trkpt>
      <trkpt lat="46.74206" lon="-1.9932">
        <ele>3.472</ele>
        <time>2011-08-11T07:55:00Z</time>
      </trkpt>
      <trkpt lat="46.74206" lon="-1.9932">
        <ele>3.344</ele>
        <time>2011-08-11T07:55:01Z</time>
      </trkpt>
      <trkpt lat="46.74176" lon="-1.9929">
        <ele>3.566</ele>
        <time>2011-08-11T07:55:05Z</time>
      </trkpt>
      <trkpt lat="46.74112" lon="-1.99273">
        <ele>3.264</ele>
        <time>2011-08-11T07:55:14Z</time>
      </trkpt>
      <trkpt lat="46.73933" lon="-1.99222">
        <ele>2.681</ele>
        <time>2011-08-11T07:55:37Z</time>
      </trkpt>
      <trkpt lat="46.73827" lon="-1.99127">
        <ele>4.299</ele>
        <time>2011-08-11T07:55:53Z</time>
      </trkpt>
      <trkpt lat="46.73701" lon="-1.99004">
        <ele>5.837</ele>
        <time>2011-08-11T07:56:12Z</time>
      </trkpt>
      <trkpt lat="46.73612" lon="-1.98919">
        <ele>5.856</ele>
        <time>2011-08-11T07:56:25Z</time>
      </trkpt>
      <trkpt lat="46.73498" lon="-1.98805">
        <ele>6.086</ele>
        <time>2011-08-11T07:56:46Z</time>
      </trkpt>
      <trkpt lat="46.73416" lon="-1.98716">
        <ele>7.129</ele>
        <time>2011-08-11T07:57:01Z</time>
      </trkpt>
      <trkpt lat="46.73394" lon="-1.98662">
        <ele>7.216</ele>
        <time>2011-08-11T07:57:08Z</time>
      </trkpt>
      <trkpt lat="46.73387" lon="-1.98582">
        <ele>5.79</ele>
        <time>2011-08-11T07:57:16Z</time>
      </trkpt>
      <trkpt lat="46.73377" lon="-1.98542">
        <ele>6.951</ele>
        <time>2011-08-11T07:57:20Z</time>
      </trkpt>
      <trkpt lat="46.73316" lon="-1.98447">
        <ele>6.402</ele>
        <time>2011-08-11T07:57:33Z</time>
      </trkpt>
      <trkpt lat="46.73154" lon="-1.98301">
        <ele>4.429</ele>
        <time>2011-08-11T07:57:58Z</time>
      </trkpt>
      <trkpt lat="46.73053" lon="-1.98257">
        <ele>4.153</ele>
        <time>2011-08-11T07:58:12Z</time>
      </trkpt>
      <trkpt lat="46.72819" lon="-1.98156">
        <ele>2.968</ele>
        <time>2011-08-11T07:58:44Z</time>
      </trkpt>
      <trkpt lat="46.72649" lon="-1.98064">
        <ele>2.829</ele>
        <time>2011-08-11T07:59:08Z</time>
      </trkpt>
      <trkpt lat="46.72468" lon="-1.97925">
        <ele>4.228</ele>
        <time>2011-08-11T07:59:35Z</time>
      </trkpt>
      <trkpt lat="46.72419" lon="-1.97855">
        <ele>4.426</ele>
        <time>2011-08-11T07:59:45Z</time>
      </trkpt>
      <trkpt lat="46.72412" lon="-1.97844">
        <ele>4.924</ele>
        <time>2011-08-11T07:59:48Z</time>
      </trkpt>
      <trkpt lat="46.72322" lon="-1.97687">
        <ele>4.869</ele>
        <time>2011-08-11T08:00:07Z</time>
      </trkpt>
      <trkpt lat="46.72197" lon="-1.97468">
        <ele>5.243</ele>
        <time>2011-08-11T08:00:35Z</time>
      </trkpt>
      <trkpt lat="46.72078" lon="-1.97253">
        <ele>6.838</ele>
        <time>2011-08-11T08:01:01Z</time>
      </trkpt>
      <trkpt lat="46.71979" lon="-1.97071">
        <ele>8.665</ele>
        <time>2011-08-11T08:01:25Z</time>
      </trkpt>
      <trkpt lat="46.71896" lon="-1.96908">
        <ele>11.561</ele>
        <time>2011-08-11T08:01:48Z</time>
      </trkpt>
      <trkpt lat="46.71886" lon="-1.96889">
        <ele>11.503</ele>
        <time>2011-08-11T08:01:51Z</time>
      </trkpt>
      <trkpt lat="46.71862" lon="-1.96868">
        <ele>12.199</ele>
        <time>2011-08-11T08:01:56Z</time>
      </trkpt>
      <trkpt lat="46.7182" lon="-1.96889">
        <ele>12.265</ele>
        <time>2011-08-11T08:02:04Z</time>
      </trkpt>
      <trkpt lat="46.71771" lon="-1.96995">
        <ele>11.613</ele>
        <time>2011-08-11T08:02:17Z</time>
      </trkpt>
      <trkpt lat="46.71678" lon="-1.97149">
        <ele>10.147</ele>
        <time>2011-08-11T08:02:37Z</time>
      </trkpt>
      <trkpt lat="46.71602" lon="-1.97278">
        <ele>8.645</ele>
        <time>2011-08-11T08:02:53Z</time>
      </trkpt>
      <trkpt lat="46.71568" lon="-1.97336">
        <ele>9.264</ele>
        <time>2011-08-11T08:03:01Z</time>
      </trkpt>
      <trkpt lat="46.71501" lon="-1.97448">
        <ele>9.714</ele>
        <time>2011-08-11T08:03:16Z</time>
      </trkpt>
      <trkpt lat="46.71417" lon="-1.97582">
        <ele>9.518</ele>
        <time>2011-08-11T08:03:37Z</time>
      </trkpt>
      <trkpt lat="46.71417" lon="-1.97582">
        <ele>9.696</ele>
        <time>2011-08-11T08:03:38Z</time>
      </trkpt>
      <trkpt lat="46.71386" lon="-1.97621">
        <ele>9.439</ele>
        <time>2011-08-11T08:03:43Z</time>
      </trkpt>
      <trkpt lat="46.71303" lon="-1.97718">
        <ele>6.824</ele>
        <time>2011-08-11T08:04:01Z</time>
      </trkpt>
      <trkpt lat="46.71245" lon="-1.97771">
        <ele>5.971</ele>
        <time>2011-08-11T08:04:14Z</time>
      </trkpt>
      <trkpt lat="46.71175" lon="-1.97826">
        <ele>5.67</ele>
        <time>2011-08-11T08:04:26Z</time>
      </trkpt>
      <trkpt lat="46.71152" lon="-1.97843">
        <ele>6.145</ele>
        <time>2011-08-11T08:04:30Z</time>
      </trkpt>
      <trkpt lat="46.71134" lon="-1.97857">
        <ele>7.972</ele>
        <time>2011-08-11T08:04:39Z</time>
      </trkpt>
      <trkpt lat="46.71142" lon="-1.979">
        <ele>7.39</ele>
        <time>2011-08-11T08:04:50Z</time>
      </trkpt>
      <trkpt lat="46.71161" lon="-1.97974">
        <ele>6.498</ele>
        <time>2011-08-11T08:05:01Z</time>
      </trkpt>
      <trkpt lat="46.71164" lon="-1.97947">
        <ele>6.414</ele>
        <time>2011-08-11T08:05:11Z</time>
      </trkpt>
      <trkpt lat="46.71164" lon="-1.97947">
        <ele>6.093</ele>
        <time>2011-08-11T08:05:17Z</time>
      </trkpt>
      <trkpt lat="46.71164" lon="-1.97947">
        <ele>6.247</ele>
        <time>2011-08-11T08:05:29Z</time>
      </trkpt>
      <trkpt lat="46.71164" lon="-1.97947">
        <ele>6.171</ele>
        <time>2011-08-11T08:06:11Z</time>
      </trkpt>
      <trkpt lat="46.71158" lon="-1.97987">
        <ele>6.271</ele>
        <time>2011-08-11T08:06:15Z</time>
      </trkpt>
      <trkpt lat="46.7115" lon="-1.97995">
        <ele>6.345</ele>
        <time>2011-08-11T08:06:23Z</time>
      </trkpt>
      <trkpt lat="46.71147" lon="-1.97998">
        <ele>6.468</ele>
        <time>2011-08-11T08:06:24Z</time>
      </trkpt>
      <trkpt lat="46.71141" lon="-1.98004">
        <ele>6.73</ele>
        <time>2011-08-11T08:06:26Z</time>
      </trkpt>
      <trkpt lat="46.71117" lon="-1.98015">
        <ele>7.541</ele>
        <time>2011-08-11T08:06:32Z</time>
      </trkpt>
      <trkpt lat="46.71088" lon="-1.98026">
        <ele>7.897</ele>
        <time>2011-08-11T08:06:39Z</time>
      </trkpt>
      <trkpt lat="46.7108" lon="-1.9801">
        <ele>8.28</ele>
        <time>2011-08-11T08:06:43Z</time>
      </trkpt>
      <trkpt lat="46.71078" lon="-1.97997">
        <ele>8.456</ele>
        <time>2011-08-11T08:06:45Z</time>
      </trkpt>
      <trkpt lat="46.71071" lon="-1.97938">
        <ele>9.518</ele>
        <time>2011-08-11T08:06:55Z</time>
      </trkpt>
      <trkpt lat="46.71057" lon="-1.97932">
        <ele>9.814</ele>
        <time>2011-08-11T08:07:04Z</time>
      </trkpt>
      <trkpt lat="46.71018" lon="-1.97938">
        <ele>10.331</ele>
        <time>2011-08-11T08:07:16Z</time>
      </trkpt>
      <trkpt lat="46.71018" lon="-1.97938">
        <ele>9.765</ele>
        <time>2011-08-11T08:07:18Z</time>
      </trkpt>
      <trkpt lat="46.70953" lon="-1.97958">
        <ele>9.73</ele>
        <time>2011-08-11T08:07:26Z</time>
      </trkpt>
      <trkpt lat="46.7094" lon="-1.9796">
        <ele>9.162</ele>
        <time>2011-08-11T08:07:31Z</time>
      </trkpt>
      <trkpt lat="46.70784" lon="-1.97898">
        <ele>6.947</ele>
        <time>2011-08-11T08:07:52Z</time>
      </trkpt>
      <trkpt lat="46.70676" lon="-1.97891">
        <ele>7.815</ele>
        <time>2011-08-11T08:08:09Z</time>
      </trkpt>
      <trkpt lat="46.70655" lon="-1.97896">
        <ele>8.422</ele>
        <time>2011-08-11T08:08:21Z</time>
      </trkpt>
      <trkpt lat="46.70655" lon="-1.97896">
        <ele>8.224</ele>
        <time>2011-08-11T08:08:46Z</time>
      </trkpt>
      <trkpt lat="46.70638" lon="-1.97901">
        <ele>6.701</ele>
        <time>2011-08-11T08:08:54Z</time>
      </trkpt>
      <trkpt lat="46.70569" lon="-1.97918">
        <ele>7.102</ele>
        <time>2011-08-11T08:09:07Z</time>
      </trkpt>
      <trkpt lat="46.70494" lon="-1.97904">
        <ele>8.628</ele>
        <time>2011-08-11T08:09:19Z</time>
      </trkpt>
      <trkpt lat="46.7047" lon="-1.97892">
        <ele>9.952</ele>
        <time>2011-08-11T08:09:23Z</time>
      </trkpt>
      <trkpt lat="46.70384" lon="-1.97807">
        <ele>10.759</ele>
        <time>2011-08-11T08:09:42Z</time>
      </trkpt>
      <trkpt lat="46.70284" lon="-1.97707">
        <ele>13.038</ele>
        <time>2011-08-11T08:10:01Z</time>
      </trkpt>
      <trkpt lat="46.70237" lon="-1.97655">
        <ele>13.347</ele>
        <time>2011-08-11T08:10:11Z</time>
      </trkpt>
      <trkpt lat="46.70227" lon="-1.97641">
        <ele>13.537</ele>
        <time>2011-08-11T08:10:15Z</time>
      </trkpt>
      <trkpt lat="46.70208" lon="-1.97618">
        <ele>12.685</ele>
        <time>2011-08-11T08:10:20Z</time>
      </trkpt>
      <trkpt lat="46.70135" lon="-1.97524">
        <ele>9.784</ele>
        <time>2011-08-11T08:10:36Z</time>
      </trkpt>
      <trkpt lat="46.70045" lon="-1.97402">
        <ele>11.439</ele>
        <time>2011-08-11T08:10:54Z</time>
      </trkpt>
      <trkpt lat="46.69949" lon="-1.97292">
        <ele>8.684</ele>
        <time>2011-08-11T08:11:12Z</time>
      </trkpt>
      <trkpt lat="46.69853" lon="-1.97221">
        <ele>10.268</ele>
        <time>2011-08-11T08:11:26Z</time>
      </trkpt>
      <trkpt lat="46.69806" lon="-1.97182">
        <ele>12.415</ele>
        <time>2011-08-11T08:11:36Z</time>
      </trkpt>
      <trkpt lat="46.69797" lon="-1.97174">
        <ele>12.764</ele>
        <time>2011-08-11T08:11:38Z</time>
      </trkpt>
      <trkpt lat="46.69723" lon="-1.97105">
        <ele>12.225</ele>
        <time>2011-08-11T08:11:52Z</time>
      </trkpt>
      <trkpt lat="46.69637" lon="-1.97009">
        <ele>10.667</ele>
        <time>2011-08-11T08:12:09Z</time>
      </trkpt>
      <trkpt lat="46.69568" lon="-1.96939">
        <ele>7.54</ele>
        <time>2011-08-11T08:12:20Z</time>
      </trkpt>
      <trkpt lat="46.69538" lon="-1.9691">
        <ele>10.677</ele>
        <time>2011-08-11T08:12:25Z</time>
      </trkpt>
      <trkpt lat="46.69443" lon="-1.96819">
        <ele>12.553</ele>
        <time>2011-08-11T08:12:43Z</time>
      </trkpt>
      <trkpt lat="46.69361" lon="-1.96722">
        <ele>12.296</ele>
        <time>2011-08-11T08:12:59Z</time>
      </trkpt>
      <trkpt lat="46.69325" lon="-1.96603">
        <ele>12.806</ele>
        <time>2011-08-11T08:13:13Z</time>
      </trkpt>
      <trkpt lat="46.69323" lon="-1.9655">
        <ele>13.97</ele>
        <time>2011-08-11T08:13:23Z</time>
      </trkpt>
      <trkpt lat="46.69323" lon="-1.96473">
        <ele>13.058</ele>
        <time>2011-08-11T08:13:34Z</time>
      </trkpt>
      <trkpt lat="46.69327" lon="-1.96347">
        <ele>14.217</ele>
        <time>2011-08-11T08:13:49Z</time>
      </trkpt>
      <trkpt lat="46.69328" lon="-1.963">
        <ele>13.551</ele>
        <time>2011-08-11T08:13:58Z</time>
      </trkpt>
      <trkpt lat="46.69331" lon="-1.96223">
        <ele>12.033</ele>
        <time>2011-08-11T08:14:07Z</time>
      </trkpt>
      <trkpt lat="46.69331" lon="-1.96195">
        <ele>11.604</ele>
        <time>2011-08-11T08:14:10Z</time>
      </trkpt>
      <trkpt lat="46.69331" lon="-1.96165">
        <ele>10.821</ele>
        <time>2011-08-11T08:14:13Z</time>
      </trkpt>
      <trkpt lat="46.69347" lon="-1.96116">
        <ele>8.688</ele>
        <time>2011-08-11T08:14:18Z</time>
      </trkpt>
      <trkpt lat="46.69367" lon="-1.96095">
        <ele>6.002</ele>
        <time>2011-08-11T08:14:21Z</time>
      </trkpt>
      <trkpt lat="46.69419" lon="-1.96044">
        <ele>4.995</ele>
        <time>2011-08-11T08:14:29Z</time>
      </trkpt>
      <trkpt lat="46.6943" lon="-1.96033">
        <ele>4.732</ele>
        <time>2011-08-11T08:14:34Z</time>
      </trkpt>
      <trkpt lat="46.69447" lon="-1.9597">
        <ele>5.247</ele>
        <time>2011-08-11T08:14:40Z</time>
      </trkpt>
      <trkpt lat="46.69474" lon="-1.95747">
        <ele>8.157</ele>
        <time>2011-08-11T08:15:04Z</time>
      </trkpt>
      <trkpt lat="46.69501" lon="-1.9562">
        <ele>9.483</ele>
        <time>2011-08-11T08:15:18Z</time>
      </trkpt>
      <trkpt lat="46.69508" lon="-1.95594">
        <ele>9.193</ele>
        <time>2011-08-11T08:15:21Z</time>
      </trkpt>
      <trkpt lat="46.69541" lon="-1.95497">
        <ele>7.263</ele>
        <time>2011-08-11T08:15:31Z</time>
      </trkpt>
      <trkpt lat="46.6955" lon="-1.95471">
        <ele>7.26</ele>
        <time>2011-08-11T08:15:35Z</time>
      </trkpt>
      <trkpt lat="46.6955" lon="-1.95424">
        <ele>6.734</ele>
        <time>2011-08-11T08:15:39Z</time>
      </trkpt>
      <trkpt lat="46.6953" lon="-1.95293">
        <ele>7.703</ele>
        <time>2011-08-11T08:15:52Z</time>
      </trkpt>
      <trkpt lat="46.69547" lon="-1.95236">
        <ele>8.544</ele>
        <time>2011-08-11T08:15:59Z</time>
      </trkpt>
      <trkpt lat="46.69552" lon="-1.95231">
        <ele>8.855</ele>
        <time>2011-08-11T08:16:00Z</time>
      </trkpt>
      <trkpt lat="46.69562" lon="-1.9522">
        <ele>9.08</ele>
        <time>2011-08-11T08:16:02Z</time>
      </trkpt>
      <trkpt lat="46.6962" lon="-1.95144">
        <ele>9.011</ele>
        <time>2011-08-11T08:16:15Z</time>
      </trkpt>
      <trkpt lat="46.69624" lon="-1.95135">
        <ele>8.669</ele>
        <time>2011-08-11T08:16:16Z</time>
      </trkpt>
      <trkpt lat="46.6966" lon="-1.95053">
        <ele>7.985</ele>
        <time>2011-08-11T08:16:29Z</time>
      </trkpt>
      <trkpt lat="46.69685" lon="-1.94987">
        <ele>7.082</ele>
        <time>2011-08-11T08:16:37Z</time>
      </trkpt>
      <trkpt lat="46.69751" lon="-1.94897">
        <ele>4.652</ele>
        <time>2011-08-11T08:16:51Z</time>
      </trkpt>
      <trkpt lat="46.69789" lon="-1.94799">
        <ele>5.048</ele>
        <time>2011-08-11T08:17:04Z</time>
      </trkpt>
      <trkpt lat="46.69798" lon="-1.94774">
        <ele>5.041</ele>
        <time>2011-08-11T08:17:16Z</time>
      </trkpt>
      <trkpt lat="46.69806" lon="-1.94746">
        <ele>5.065</ele>
        <time>2011-08-11T08:17:32Z</time>
      </trkpt>
      <trkpt lat="46.69819" lon="-1.94709">
        <ele>4.576</ele>
        <time>2011-08-11T08:17:40Z</time>
      </trkpt>
      <trkpt lat="46.698" lon="-1.94628">
        <ele>2.74</ele>
        <time>2011-08-11T08:17:49Z</time>
      </trkpt>
      <trkpt lat="46.69775" lon="-1.94533">
        <ele>3.962</ele>
        <time>2011-08-11T08:17:57Z</time>
      </trkpt>
      <trkpt lat="46.69745" lon="-1.94444">
        <ele>4.034</ele>
        <time>2011-08-11T08:18:10Z</time>
      </trkpt>
      <trkpt lat="46.69711" lon="-1.94331">
        <ele>3.409</ele>
        <time>2011-08-11T08:18:23Z</time>
      </trkpt>
      <trkpt lat="46.69705" lon="-1.94312">
        <ele>3.341</ele>
        <time>2011-08-11T08:18:25Z</time>
      </trkpt>
      <trkpt lat="46.697" lon="-1.94295">
        <ele>3.371</ele>
        <time>2011-08-11T08:18:28Z</time>
      </trkpt>
      <trkpt lat="46.69664" lon="-1.94158">
        <ele>4.698</ele>
        <time>2011-08-11T08:18:43Z</time>
      </trkpt>
      <trkpt lat="46.6966" lon="-1.94141">
        <ele>3.974</ele>
        <time>2011-08-11T08:18:46Z</time>
      </trkpt>
      <trkpt lat="46.69638" lon="-1.94107">
        <ele>4.427</ele>
        <time>2011-08-11T08:18:55Z</time>
      </trkpt>
      <trkpt lat="46.69627" lon="-1.94112">
        <ele>3.376</ele>
        <time>2011-08-11T08:18:59Z</time>
      </trkpt>
      <trkpt lat="46.69603" lon="-1.94097">
        <ele>3.189</ele>
        <time>2011-08-11T08:19:05Z</time>
      </trkpt>
      <trkpt lat="46.69589" lon="-1.94046">
        <ele>2.678</ele>
        <time>2011-08-11T08:19:12Z</time>
      </trkpt>
      <trkpt lat="46.69546" lon="-1.93973">
        <ele>2.614</ele>
        <time>2011-08-11T08:19:21Z</time>
      </trkpt>
      <trkpt lat="46.69529" lon="-1.93914">
        <ele>3.049</ele>
        <time>2011-08-11T08:19:26Z</time>
      </trkpt>
      <trkpt lat="46.69447" lon="-1.93746">
        <ele>2.672</ele>
        <time>2011-08-11T08:19:48Z</time>
      </trkpt>
      <trkpt lat="46.69422" lon="-1.93654">
        <ele>2.998</ele>
        <time>2011-08-11T08:19:57Z</time>
      </trkpt>
      <trkpt lat="46.69441" lon="-1.93601">
        <ele>3.032</ele>
        <time>2011-08-11T08:20:05Z</time>
      </trkpt>
      <trkpt lat="46.69447" lon="-1.93598">
        <ele>3.011</ele>
        <time>2011-08-11T08:20:06Z</time>
      </trkpt>
      <trkpt lat="46.69457" lon="-1.93592">
        <ele>3.22</ele>
        <time>2011-08-11T08:20:08Z</time>
      </trkpt>
      <trkpt lat="46.69477" lon="-1.9357">
        <ele>4.042</ele>
        <time>2011-08-11T08:20:15Z</time>
      </trkpt>
      <trkpt lat="46.69477" lon="-1.9357">
        <ele>3.883</ele>
        <time>2011-08-11T08:21:11Z</time>
      </trkpt>
      <trkpt lat="46.6947" lon="-1.93586">
        <ele>3.86</ele>
        <time>2011-08-11T08:21:16Z</time>
      </trkpt>
      <trkpt lat="46.69502" lon="-1.93577">
        <ele>3.932</ele>
        <time>2011-08-11T08:21:29Z</time>
      </trkpt>
      <trkpt lat="46.69545" lon="-1.93583">
        <ele>3.777</ele>
        <time>2011-08-11T08:21:41Z</time>
      </trkpt>
      <trkpt lat="46.69579" lon="-1.93591">
        <ele>4.378</ele>
        <time>2011-08-11T08:21:54Z</time>
      </trkpt>
      <trkpt lat="46.69584" lon="-1.93591">
        <ele>4.025</ele>
        <time>2011-08-11T08:21:58Z</time>
      </trkpt>
      <trkpt lat="46.69602" lon="-1.93547">
        <ele>4.141</ele>
        <time>2011-08-11T08:22:03Z</time>
      </trkpt>
      <trkpt lat="46.69623" lon="-1.93439">
        <ele>5.006</ele>
        <time>2011-08-11T08:22:18Z</time>
      </trkpt>
      <trkpt lat="46.69623" lon="-1.93437">
        <ele>4.153</ele>
        <time>2011-08-11T08:22:22Z</time>
      </trkpt>
      <trkpt lat="46.6963" lon="-1.93396">
        <ele>4.548</ele>
        <time>2011-08-11T08:22:24Z</time>
      </trkpt>
      <trkpt lat="46.69641" lon="-1.93315">
        <ele>7.154</ele>
        <time>2011-08-11T08:22:35Z</time>
      </trkpt>
      <trkpt lat="46.69654" lon="-1.93224">
        <ele>9.885</ele>
        <time>2011-08-11T08:22:48Z</time>
      </trkpt>
      <trkpt lat="46.69653" lon="-1.93166">
        <ele>10.551</ele>
        <time>2011-08-11T08:22:56Z</time>
      </trkpt>
      <trkpt lat="46.6964" lon="-1.9298">
        <ele>13.471</ele>
        <time>2011-08-11T08:23:20Z</time>
      </trkpt>
      <trkpt lat="46.69627" lon="-1.92809">
        <ele>15.847</ele>
        <time>2011-08-11T08:23:43Z</time>
      </trkpt>
      <trkpt lat="46.69627" lon="-1.92794">
        <ele>16.695</ele>
        <time>2011-08-11T08:23:47Z</time>
      </trkpt>
      <trkpt lat="46.69616" lon="-1.92766">
        <ele>16.574</ele>
        <time>2011-08-11T08:23:54Z</time>
      </trkpt>
      <trkpt lat="46.6957" lon="-1.92661">
        <ele>15.951</ele>
        <time>2011-08-11T08:24:09Z</time>
      </trkpt>
      <trkpt lat="46.69558" lon="-1.92633">
        <ele>16.321</ele>
        <time>2011-08-11T08:24:13Z</time>
      </trkpt>
      <trkpt lat="46.6955" lon="-1.92604">
        <ele>17.34</ele>
        <time>2011-08-11T08:24:22Z</time>
      </trkpt>
      <trkpt lat="46.6955" lon="-1.92604">
        <ele>17.121</ele>
        <time>2011-08-11T08:24:24Z</time>
      </trkpt>
      <trkpt lat="46.69546" lon="-1.9257">
        <ele>16.653</ele>
        <time>2011-08-11T08:24:30Z</time>
      </trkpt>
      <trkpt lat="46.69537" lon="-1.92506">
        <ele>16.293</ele>
        <time>2011-08-11T08:24:37Z</time>
      </trkpt>
      <trkpt lat="46.69537" lon="-1.92475">
        <ele>17.533</ele>
        <time>2011-08-11T08:24:44Z</time>
      </trkpt>
      <trkpt lat="46.69531" lon="-1.92424">
        <ele>17.151</ele>
        <time>2011-08-11T08:24:50Z</time>
      </trkpt>
      <trkpt lat="46.69529" lon="-1.92391">
        <ele>17.179</ele>
        <time>2011-08-11T08:24:54Z</time>
      </trkpt>
      <trkpt lat="46.69515" lon="-1.92221">
        <ele>16.626</ele>
        <time>2011-08-11T08:25:12Z</time>
      </trkpt>
      <trkpt lat="46.69503" lon="-1.9207">
        <ele>17.005</ele>
        <time>2011-08-11T08:25:28Z</time>
      </trkpt>
      <trkpt lat="46.69488" lon="-1.91858">
        <ele>16.562</ele>
        <time>2011-08-11T08:25:49Z</time>
      </trkpt>
      <trkpt lat="46.69477" lon="-1.9167">
        <ele>16.881</ele>
        <time>2011-08-11T08:26:08Z</time>
      </trkpt>
      <trkpt lat="46.69472" lon="-1.91634">
        <ele>16.693</ele>
        <time>2011-08-11T08:26:12Z</time>
      </trkpt>
      <trkpt lat="46.69468" lon="-1.91604">
        <ele>16.331</ele>
        <time>2011-08-11T08:26:16Z</time>
      </trkpt>
      <trkpt lat="46.69464" lon="-1.91568">
        <ele>16.501</ele>
        <time>2011-08-11T08:26:21Z</time>
      </trkpt>
      <trkpt lat="46.69465" lon="-1.91518">
        <ele>16.152</ele>
        <time>2011-08-11T08:26:31Z</time>
      </trkpt>
      <trkpt lat="46.69467" lon="-1.91487">
        <ele>15.727</ele>
        <time>2011-08-11T08:26:35Z</time>
      </trkpt>
      <trkpt lat="46.69455" lon="-1.91453">
        <ele>15.209</ele>
        <time>2011-08-11T08:26:39Z</time>
      </trkpt>
      <trkpt lat="46.69444" lon="-1.91393">
        <ele>13.842</ele>
        <time>2011-08-11T08:26:46Z</time>
      </trkpt>
      <trkpt lat="46.69482" lon="-1.91373">
        <ele>12.084</ele>
        <time>2011-08-11T08:26:51Z</time>
      </trkpt>
      <trkpt lat="46.69488" lon="-1.9138">
        <ele>11.891</ele>
        <time>2011-08-11T08:26:52Z</time>
      </trkpt>
      <trkpt lat="46.69498" lon="-1.91394">
        <ele>11.726</ele>
        <time>2011-08-11T08:26:54Z</time>
      </trkpt>
      <trkpt lat="46.6954" lon="-1.91397">
        <ele>11.088</ele>
        <time>2011-08-11T08:26:59Z</time>
      </trkpt>
      <trkpt lat="46.69542" lon="-1.91399">
        <ele>11.488</ele>
        <time>2011-08-11T08:27:05Z</time>
      </trkpt>
      <trkpt lat="46.69563" lon="-1.91282">
        <ele>10.289</ele>
        <time>2011-08-11T08:27:11Z</time>
      </trkpt>
      <trkpt lat="46.69583" lon="-1.91187">
        <ele>10.484</ele>
        <time>2011-08-11T08:27:19Z</time>
      </trkpt>
      <trkpt lat="46.69591" lon="-1.91186">
        <ele>10.444</ele>
        <time>2011-08-11T08:27:20Z</time>
      </trkpt>
      <trkpt lat="46.69694" lon="-1.91171">
        <ele>11.202</ele>
        <time>2011-08-11T08:27:33Z</time>
      </trkpt>
      <trkpt lat="46.69666" lon="-1.91186">
        <ele>12.304</ele>
        <time>2011-08-11T08:27:37Z</time>
      </trkpt>
      <trkpt lat="46.69718" lon="-1.91163">
        <ele>12.637</ele>
        <time>2011-08-11T08:27:42Z</time>
      </trkpt>
      <trkpt lat="46.69736" lon="-1.91157">
        <ele>13.57</ele>
        <time>2011-08-11T08:27:46Z</time>
      </trkpt>
      <trkpt lat="46.69816" lon="-1.91097">
        <ele>15.039</ele>
        <time>2011-08-11T08:28:01Z</time>
      </trkpt>
      <trkpt lat="46.69837" lon="-1.91074">
        <ele>15.138</ele>
        <time>2011-08-11T08:28:05Z</time>
      </trkpt>
      <trkpt lat="46.69904" lon="-1.90949">
        <ele>16.141</ele>
        <time>2011-08-11T08:28:23Z</time>
      </trkpt>
      <trkpt lat="46.69945" lon="-1.90864">
        <ele>16.962</ele>
        <time>2011-08-11T08:28:35Z</time>
      </trkpt>
      <trkpt lat="46.69942" lon="-1.90832">
        <ele>17.119</ele>
        <time>2011-08-11T08:28:39Z</time>
      </trkpt>
      <trkpt lat="46.69938" lon="-1.9081">
        <ele>17.282</ele>
        <time>2011-08-11T08:28:42Z</time>
      </trkpt>
      <trkpt lat="46.69936" lon="-1.90777">
        <ele>17.355</ele>
        <time>2011-08-11T08:28:46Z</time>
      </trkpt>
      <trkpt lat="46.69948" lon="-1.90684">
        <ele>15.715</ele>
        <time>2011-08-11T08:28:56Z</time>
      </trkpt>
      <trkpt lat="46.69957" lon="-1.90629">
        <ele>14.093</ele>
        <time>2011-08-11T08:29:01Z</time>
      </trkpt>
      <trkpt lat="46.69988" lon="-1.90583">
        <ele>11.537</ele>
        <time>2011-08-11T08:29:06Z</time>
      </trkpt>
      <trkpt lat="46.70007" lon="-1.90571">
        <ele>9.763</ele>
        <time>2011-08-11T08:29:08Z</time>
      </trkpt>
      <trkpt lat="46.70042" lon="-1.90571">
        <ele>6.692</ele>
        <time>2011-08-11T08:29:11Z</time>
      </trkpt>
      <trkpt lat="46.70047" lon="-1.90578">
        <ele>7.093</ele>
        <time>2011-08-11T08:29:12Z</time>
      </trkpt>
      <trkpt lat="46.70098" lon="-1.90565">
        <ele>10.569</ele>
        <time>2011-08-11T08:29:18Z</time>
      </trkpt>
      <trkpt lat="46.70118" lon="-1.90549">
        <ele>11.997</ele>
        <time>2011-08-11T08:29:21Z</time>
      </trkpt>
      <trkpt lat="46.7013" lon="-1.9054">
        <ele>13.156</ele>
        <time>2011-08-11T08:29:23Z</time>
      </trkpt>
      <trkpt lat="46.70197" lon="-1.90479">
        <ele>16.332</ele>
        <time>2011-08-11T08:29:34Z</time>
      </trkpt>
      <trkpt lat="46.70286" lon="-1.90383">
        <ele>18.529</ele>
        <time>2011-08-11T08:29:51Z</time>
      </trkpt>
      <trkpt lat="46.70339" lon="-1.9033">
        <ele>18.858</ele>
        <time>2011-08-11T08:30:02Z</time>
      </trkpt>
      <trkpt lat="46.70361" lon="-1.90339">
        <ele>19.045</ele>
        <time>2011-08-11T08:30:08Z</time>
      </trkpt>
      <trkpt lat="46.70372" lon="-1.90354">
        <ele>18.424</ele>
        <time>2011-08-11T08:30:11Z</time>
      </trkpt>
      <trkpt lat="46.70387" lon="-1.904">
        <ele>16.741</ele>
        <time>2011-08-11T08:30:17Z</time>
      </trkpt>
      <trkpt lat="46.7039" lon="-1.90493">
        <ele>12.976</ele>
        <time>2011-08-11T08:30:26Z</time>
      </trkpt>
      <trkpt lat="46.70397" lon="-1.90583">
        <ele>10.761</ele>
        <time>2011-08-11T08:30:34Z</time>
      </trkpt>
      <trkpt lat="46.70404" lon="-1.90625">
        <ele>11.954</ele>
        <time>2011-08-11T08:30:38Z</time>
      </trkpt>
      <trkpt lat="46.70419" lon="-1.90667">
        <ele>14.336</ele>
        <time>2011-08-11T08:30:43Z</time>
      </trkpt>
      <trkpt lat="46.70489" lon="-1.90866">
        <ele>16.846</ele>
        <time>2011-08-11T08:31:06Z</time>
      </trkpt>
      <trkpt lat="46.70521" lon="-1.90984">
        <ele>19.835</ele>
        <time>2011-08-11T08:31:22Z</time>
      </trkpt>
      <trkpt lat="46.70561" lon="-1.91134">
        <ele>20.179</ele>
        <time>2011-08-11T08:31:44Z</time>
      </trkpt>
      <trkpt lat="46.70612" lon="-1.91294">
        <ele>21.214</ele>
        <time>2011-08-11T08:32:06Z</time>
      </trkpt>
      <trkpt lat="46.70653" lon="-1.9142">
        <ele>20.121</ele>
        <time>2011-08-11T08:32:23Z</time>
      </trkpt>
      <trkpt lat="46.70705" lon="-1.91577">
        <ele>19.355</ele>
        <time>2011-08-11T08:32:42Z</time>
      </trkpt>
      <trkpt lat="46.70718" lon="-1.91607">
        <ele>19.336</ele>
        <time>2011-08-11T08:32:46Z</time>
      </trkpt>
      <trkpt lat="46.70733" lon="-1.91636">
        <ele>19.012</ele>
        <time>2011-08-11T08:32:50Z</time>
      </trkpt>
      <trkpt lat="46.70765" lon="-1.91665">
        <ele>19.308</ele>
        <time>2011-08-11T08:32:56Z</time>
      </trkpt>
      <trkpt lat="46.70783" lon="-1.9169">
        <ele>18.567</ele>
        <time>2011-08-11T08:33:00Z</time>
      </trkpt>
      <trkpt lat="46.70849" lon="-1.91766">
        <ele>19.394</ele>
        <time>2011-08-11T08:33:15Z</time>
      </trkpt>
      <trkpt lat="46.70866" lon="-1.91764">
        <ele>19.238</ele>
        <time>2011-08-11T08:33:19Z</time>
      </trkpt>
      <trkpt lat="46.70889" lon="-1.9175">
        <ele>18.525</ele>
        <time>2011-08-11T08:33:23Z</time>
      </trkpt>
      <trkpt lat="46.70989" lon="-1.91617">
        <ele>16.197</ele>
        <time>2011-08-11T08:33:40Z</time>
      </trkpt>
      <trkpt lat="46.711" lon="-1.91455">
        <ele>13.141</ele>
        <time>2011-08-11T08:33:59Z</time>
      </trkpt>
      <trkpt lat="46.71125" lon="-1.91398">
        <ele>10.526</ele>
        <time>2011-08-11T08:34:06Z</time>
      </trkpt>
      <trkpt lat="46.71237" lon="-1.9113">
        <ele>10.783</ele>
        <time>2011-08-11T08:34:29Z</time>
      </trkpt>
      <trkpt lat="46.71314" lon="-1.9099">
        <ele>12.507</ele>
        <time>2011-08-11T08:34:46Z</time>
      </trkpt>
      <trkpt lat="46.71438" lon="-1.90836">
        <ele>13.101</ele>
        <time>2011-08-11T08:35:06Z</time>
      </trkpt>
      <trkpt lat="46.7153" lon="-1.90724">
        <ele>11.873</ele>
        <time>2011-08-11T08:35:21Z</time>
      </trkpt>
      <trkpt lat="46.71537" lon="-1.90716">
        <ele>10.127</ele>
        <time>2011-08-11T08:35:25Z</time>
      </trkpt>
      <trkpt lat="46.71671" lon="-1.90551">
        <ele>8.283</ele>
        <time>2011-08-11T08:35:44Z</time>
      </trkpt>
      <trkpt lat="46.71701" lon="-1.90512">
        <ele>6.957</ele>
        <time>2011-08-11T08:35:49Z</time>
      </trkpt>
      <trkpt lat="46.71804" lon="-1.90387">
        <ele>3.892</ele>
        <time>2011-08-11T08:36:04Z</time>
      </trkpt>
      <trkpt lat="46.71856" lon="-1.90326">
        <ele>3.715</ele>
        <time>2011-08-11T08:36:11Z</time>
      </trkpt>
      <trkpt lat="46.71886" lon="-1.90264">
        <ele>5.357</ele>
        <time>2011-08-11T08:36:17Z</time>
      </trkpt>
      <trkpt lat="46.71926" lon="-1.90238">
        <ele>5.902</ele>
        <time>2011-08-11T08:36:23Z</time>
      </trkpt>
      <trkpt lat="46.71957" lon="-1.90163">
        <ele>6.047</ele>
        <time>2011-08-11T08:36:31Z</time>
      </trkpt>
      <trkpt lat="46.71968" lon="-1.90068">
        <ele>6.741</ele>
        <time>2011-08-11T08:36:40Z</time>
      </trkpt>
      <trkpt lat="46.7198" lon="-1.90044">
        <ele>7.384</ele>
        <time>2011-08-11T08:36:43Z</time>
      </trkpt>
      <trkpt lat="46.72035" lon="-1.89952">
        <ele>7.689</ele>
        <time>2011-08-11T08:36:54Z</time>
      </trkpt>
      <trkpt lat="46.72144" lon="-1.89861">
        <ele>7.769</ele>
        <time>2011-08-11T08:37:09Z</time>
      </trkpt>
      <trkpt lat="46.7229" lon="-1.8974">
        <ele>5.659</ele>
        <time>2011-08-11T08:37:29Z</time>
      </trkpt>
      <trkpt lat="46.72385" lon="-1.89661">
        <ele>2.383</ele>
        <time>2011-08-11T08:37:42Z</time>
      </trkpt>
      <trkpt lat="46.72472" lon="-1.8956">
        <ele>4.512</ele>
        <time>2011-08-11T08:37:56Z</time>
      </trkpt>
      <trkpt lat="46.72481" lon="-1.89549">
        <ele>5.218</ele>
        <time>2011-08-11T08:37:58Z</time>
      </trkpt>
      <trkpt lat="46.72542" lon="-1.89452">
        <ele>6.021</ele>
        <time>2011-08-11T08:38:09Z</time>
      </trkpt>
      <trkpt lat="46.72587" lon="-1.89287">
        <ele>5.282</ele>
        <time>2011-08-11T08:38:25Z</time>
      </trkpt>
      <trkpt lat="46.72626" lon="-1.89027">
        <ele>6.006</ele>
        <time>2011-08-11T08:38:50Z</time>
      </trkpt>
      <trkpt lat="46.72657" lon="-1.88761">
        <ele>5.015</ele>
        <time>2011-08-11T08:39:14Z</time>
      </trkpt>
      <trkpt lat="46.72683" lon="-1.88463">
        <ele>2.941</ele>
        <time>2011-08-11T08:39:42Z</time>
      </trkpt>
      <trkpt lat="46.72712" lon="-1.88321">
        <ele>5.116</ele>
        <time>2011-08-11T08:39:52Z</time>
      </trkpt>
      <trkpt lat="46.72739" lon="-1.88243">
        <ele>8.57</ele>
        <time>2011-08-11T08:40:01Z</time>
      </trkpt>
      <trkpt lat="46.72767" lon="-1.88188">
        <ele>10.684</ele>
        <time>2011-08-11T08:40:09Z</time>
      </trkpt>
      <trkpt lat="46.72846" lon="-1.88072">
        <ele>12.694</ele>
        <time>2011-08-11T08:40:29Z</time>
      </trkpt>
      <trkpt lat="46.72973" lon="-1.87887">
        <ele>9.491</ele>
        <time>2011-08-11T08:40:53Z</time>
      </trkpt>
      <trkpt lat="46.73026" lon="-1.87735">
        <ele>10.156</ele>
        <time>2011-08-11T08:41:09Z</time>
      </trkpt>
      <trkpt lat="46.73089" lon="-1.87531">
        <ele>11.676</ele>
        <time>2011-08-11T08:41:31Z</time>
      </trkpt>
      <trkpt lat="46.73154" lon="-1.87311">
        <ele>12.405</ele>
        <time>2011-08-11T08:41:56Z</time>
      </trkpt>
      <trkpt lat="46.73183" lon="-1.87211">
        <ele>11.526</ele>
        <time>2011-08-11T08:42:07Z</time>
      </trkpt>
      <trkpt lat="46.73172" lon="-1.8717">
        <ele>12.457</ele>
        <time>2011-08-11T08:42:11Z</time>
      </trkpt>
      <trkpt lat="46.73208" lon="-1.87143">
        <ele>9.917</ele>
        <time>2011-08-11T08:42:17Z</time>
      </trkpt>
      <trkpt lat="46.73214" lon="-1.87149">
        <ele>9.518</ele>
        <time>2011-08-11T08:42:18Z</time>
      </trkpt>
      <trkpt lat="46.73219" lon="-1.87154">
        <ele>9.202</ele>
        <time>2011-08-11T08:42:20Z</time>
      </trkpt>
      <trkpt lat="46.73248" lon="-1.87178">
        <ele>8.662</ele>
        <time>2011-08-11T08:42:23Z</time>
      </trkpt>
      <trkpt lat="46.73249" lon="-1.8718">
        <ele>7.822</ele>
        <time>2011-08-11T08:42:25Z</time>
      </trkpt>
      <trkpt lat="46.73296" lon="-1.87232">
        <ele>5.688</ele>
        <time>2011-08-11T08:42:30Z</time>
      </trkpt>
      <trkpt lat="46.73338" lon="-1.87267">
        <ele>1.701</ele>
        <time>2011-08-11T08:42:35Z</time>
      </trkpt>
      <trkpt lat="46.73457" lon="-1.87339">
        <ele>2.547</ele>
        <time>2011-08-11T08:42:49Z</time>
      </trkpt>
      <trkpt lat="46.73568" lon="-1.87349">
        <ele>4.823</ele>
        <time>2011-08-11T08:43:03Z</time>
      </trkpt>
      <trkpt lat="46.73651" lon="-1.87301">
        <ele>7.64</ele>
        <time>2011-08-11T08:43:16Z</time>
      </trkpt>
      <trkpt lat="46.73735" lon="-1.87206">
        <ele>10.88</ele>
        <time>2011-08-11T08:43:31Z</time>
      </trkpt>
      <trkpt lat="46.73823" lon="-1.8715">
        <ele>10.86</ele>
        <time>2011-08-11T08:43:46Z</time>
      </trkpt>
      <trkpt lat="46.73969" lon="-1.87122">
        <ele>8.436</ele>
        <time>2011-08-11T08:44:07Z</time>
      </trkpt>
      <trkpt lat="46.74177" lon="-1.87095">
        <ele>6.524</ele>
        <time>2011-08-11T08:44:34Z</time>
      </trkpt>
      <trkpt lat="46.74406" lon="-1.87059">
        <ele>5.179</ele>
        <time>2011-08-11T08:45:02Z</time>
      </trkpt>
      <trkpt lat="46.74634" lon="-1.87">
        <ele>2.853</ele>
        <time>2011-08-11T08:45:30Z</time>
      </trkpt>
      <trkpt lat="46.74742" lon="-1.86955">
        <ele>4.602</ele>
        <time>2011-08-11T08:45:48Z</time>
      </trkpt>
      <trkpt lat="46.74737" lon="-1.8695">
        <ele>4.514</ele>
        <time>2011-08-11T08:46:05Z</time>
      </trkpt>
      <trkpt lat="46.74737" lon="-1.8695">
        <ele>4.546</ele>
        <time>2011-08-11T08:46:07Z</time>
      </trkpt>
      <trkpt lat="46.74736" lon="-1.86942">
        <ele>4.212</ele>
        <time>2011-08-11T08:46:21Z</time>
      </trkpt>
      <trkpt lat="46.74736" lon="-1.86942">
        <ele>4.481</ele>
        <time>2011-08-11T08:47:00Z</time>
      </trkpt>
      <trkpt lat="46.74736" lon="-1.86942">
        <ele>4.446</ele>
        <time>2011-08-11T08:47:43Z</time>
      </trkpt>
      <trkpt lat="46.74736" lon="-1.86942">
        <ele>4.42</ele>
        <time>2011-08-11T08:47:57Z</time>
      </trkpt>
      <trkpt lat="46.74736" lon="-1.86942">
        <ele>4.683</ele>
        <time>2011-08-11T08:48:20Z</time>
      </trkpt>
      <trkpt lat="46.74736" lon="-1.86942">
        <ele>4.278</ele>
        <time>2011-08-11T08:48:23Z</time>
      </trkpt>
      <trkpt lat="46.7478" lon="-1.86943">
        <ele>3.339</ele>
        <time>2011-08-11T08:48:34Z</time>
      </trkpt>
      <trkpt lat="46.7488" lon="-1.86923">
        <ele>3.262</ele>
        <time>2011-08-11T08:48:51Z</time>
      </trkpt>
      <trkpt lat="46.74983" lon="-1.86946">
        <ele>6.625</ele>
        <time>2011-08-11T08:49:09Z</time>
      </trkpt>
      <trkpt lat="46.75026" lon="-1.86963">
        <ele>9.796</ele>
        <time>2011-08-11T08:49:19Z</time>
      </trkpt>
      <trkpt lat="46.75081" lon="-1.86985">
        <ele>13.204</ele>
        <time>2011-08-11T08:49:33Z</time>
      </trkpt>
      <trkpt lat="46.75133" lon="-1.87006">
        <ele>15.886</ele>
        <time>2011-08-11T08:49:49Z</time>
      </trkpt>
      <trkpt lat="46.75167" lon="-1.87005">
        <ele>17.758</ele>
        <time>2011-08-11T08:49:59Z</time>
      </trkpt>
      <trkpt lat="46.75175" lon="-1.8704">
        <ele>17.659</ele>
        <time>2011-08-11T08:50:08Z</time>
      </trkpt>
      <trkpt lat="46.75168" lon="-1.87061">
        <ele>17.776</ele>
        <time>2011-08-11T08:50:13Z</time>
      </trkpt>
      <trkpt lat="46.75161" lon="-1.87065">
        <ele>17.309</ele>
        <time>2011-08-11T08:50:15Z</time>
      </trkpt>
      <trkpt lat="46.75139" lon="-1.87178">
        <ele>16.112</ele>
        <time>2011-08-11T08:50:30Z</time>
      </trkpt>
      <trkpt lat="46.75132" lon="-1.87314">
        <ele>14.873</ele>
        <time>2011-08-11T08:50:45Z</time>
      </trkpt>
      <trkpt lat="46.75146" lon="-1.87459">
        <ele>11.869</ele>
        <time>2011-08-11T08:51:01Z</time>
      </trkpt>
      <trkpt lat="46.75146" lon="-1.87631">
        <ele>10.237</ele>
        <time>2011-08-11T08:51:14Z</time>
      </trkpt>
      <trkpt lat="46.75126" lon="-1.87905">
        <ele>8.002</ele>
        <time>2011-08-11T08:51:38Z</time>
      </trkpt>
      <trkpt lat="46.75086" lon="-1.88024">
        <ele>6.721</ele>
        <time>2011-08-11T08:51:51Z</time>
      </trkpt>
      <trkpt lat="46.75026" lon="-1.88107">
        <ele>9.787</ele>
        <time>2011-08-11T08:52:04Z</time>
      </trkpt>
      <trkpt lat="46.74933" lon="-1.88278">
        <ele>11.351</ele>
        <time>2011-08-11T08:52:26Z</time>
      </trkpt>
      <trkpt lat="46.74876" lon="-1.88478">
        <ele>12.052</ele>
        <time>2011-08-11T08:52:50Z</time>
      </trkpt>
      <trkpt lat="46.74839" lon="-1.8869">
        <ele>11.525</ele>
        <time>2011-08-11T08:53:13Z</time>
      </trkpt>
      <trkpt lat="46.74824" lon="-1.88957">
        <ele>9.427</ele>
        <time>2011-08-11T08:53:40Z</time>
      </trkpt>
      <trkpt lat="46.74833" lon="-1.89188">
        <ele>6.732</ele>
        <time>2011-08-11T08:54:04Z</time>
      </trkpt>
      <trkpt lat="46.74841" lon="-1.89416">
        <ele>7.399</ele>
        <time>2011-08-11T08:54:25Z</time>
      </trkpt>
      <trkpt lat="46.74841" lon="-1.89709">
        <ele>6.83</ele>
        <time>2011-08-11T08:54:53Z</time>
      </trkpt>
      <trkpt lat="46.74848" lon="-1.89902">
        <ele>5.389</ele>
        <time>2011-08-11T08:55:11Z</time>
      </trkpt>
      <trkpt lat="46.74852" lon="-1.90077">
        <ele>4.077</ele>
        <time>2011-08-11T08:55:27Z</time>
      </trkpt>
      <trkpt lat="46.74845" lon="-1.90312">
        <ele>2.684</ele>
        <time>2011-08-11T08:55:48Z</time>
      </trkpt>
      <trkpt lat="46.74835" lon="-1.90364">
        <ele>1.669</ele>
        <time>2011-08-11T08:55:53Z</time>
      </trkpt>
      <trkpt lat="46.74801" lon="-1.90416">
        <ele>1.607</ele>
        <time>2011-08-11T08:56:00Z</time>
      </trkpt>
      <trkpt lat="46.74665" lon="-1.90533">
        <ele>1.946</ele>
        <time>2011-08-11T08:56:21Z</time>
      </trkpt>
      <trkpt lat="46.74588" lon="-1.90597">
        <ele>3.122</ele>
        <time>2011-08-11T08:56:35Z</time>
      </trkpt>
      <trkpt lat="46.74533" lon="-1.90639">
        <ele>2.567</ele>
        <time>2011-08-11T08:56:45Z</time>
      </trkpt>
      <trkpt lat="46.7453" lon="-1.90667">
        <ele>2.99</ele>
        <time>2011-08-11T08:56:49Z</time>
      </trkpt>
      <trkpt lat="46.74559" lon="-1.9073">
        <ele>3.08</ele>
        <time>2011-08-11T08:56:59Z</time>
      </trkpt>
      <trkpt lat="46.74571" lon="-1.90825">
        <ele>2.291</ele>
        <time>2011-08-11T08:57:13Z</time>
      </trkpt>
      <trkpt lat="46.74571" lon="-1.90873">
        <ele>1.008</ele>
        <time>2011-08-11T08:57:19Z</time>
      </trkpt>
      <trkpt lat="46.74581" lon="-1.90903">
        <ele>1.36</ele>
        <time>2011-08-11T08:57:23Z</time>
      </trkpt>
      <trkpt lat="46.74597" lon="-1.90957">
        <ele>0.935</ele>
        <time>2011-08-11T08:57:30Z</time>
      </trkpt>
      <trkpt lat="46.74595" lon="-1.91014">
        <ele>2.067</ele>
        <time>2011-08-11T08:57:37Z</time>
      </trkpt>
      <trkpt lat="46.74593" lon="-1.91021">
        <ele>1.85</ele>
        <time>2011-08-11T08:57:39Z</time>
      </trkpt>
      <trkpt lat="46.74593" lon="-1.91021">
        <ele>2.097</ele>
        <time>2011-08-11T08:57:42Z</time>
      </trkpt>
      <trkpt lat="46.74493" lon="-1.91162">
        <ele>1.303</ele>
        <time>2011-08-11T08:58:01Z</time>
      </trkpt>
      <trkpt lat="46.74375" lon="-1.91306">
        <ele>1.612</ele>
        <time>2011-08-11T08:58:24Z</time>
      </trkpt>
      <trkpt lat="46.743" lon="-1.91452">
        <ele>1.064</ele>
        <time>2011-08-11T08:58:43Z</time>
      </trkpt>
      <trkpt lat="46.74189" lon="-1.91676">
        <ele>2.268</ele>
        <time>2011-08-11T08:59:13Z</time>
      </trkpt>
      <trkpt lat="46.74065" lon="-1.91877">
        <ele>1.986</ele>
        <time>2011-08-11T08:59:41Z</time>
      </trkpt>
      <trkpt lat="46.74007" lon="-1.91978">
        <ele>0.9</ele>
        <time>2011-08-11T08:59:54Z</time>
      </trkpt>
      <trkpt lat="46.73978" lon="-1.92086">
        <ele>2.77</ele>
        <time>2011-08-11T09:00:06Z</time>
      </trkpt>
      <trkpt lat="46.7396" lon="-1.92196">
        <ele>2.798</ele>
        <time>2011-08-11T09:00:19Z</time>
      </trkpt>
      <trkpt lat="46.73956" lon="-1.92222">
        <ele>3.041</ele>
        <time>2011-08-11T09:00:22Z</time>
      </trkpt>
      <trkpt lat="46.73944" lon="-1.92261">
        <ele>4.422</ele>
        <time>2011-08-11T09:00:27Z</time>
      </trkpt>
      <trkpt lat="46.73908" lon="-1.92375">
        <ele>7.233</ele>
        <time>2011-08-11T09:00:42Z</time>
      </trkpt>
      <trkpt lat="46.73867" lon="-1.92514">
        <ele>7.965</ele>
        <time>2011-08-11T09:01:01Z</time>
      </trkpt>
      <trkpt lat="46.73832" lon="-1.92623">
        <ele>8.034</ele>
        <time>2011-08-11T09:01:15Z</time>
      </trkpt>
      <trkpt lat="46.73818" lon="-1.92759">
        <ele>8.312</ele>
        <time>2011-08-11T09:01:31Z</time>
      </trkpt>
      <trkpt lat="46.7383" lon="-1.92974">
        <ele>6.214</ele>
        <time>2011-08-11T09:01:54Z</time>
      </trkpt>
      <trkpt lat="46.73844" lon="-1.93218">
        <ele>9.001</ele>
        <time>2011-08-11T09:02:20Z</time>
      </trkpt>
      <trkpt lat="46.7386" lon="-1.93408">
        <ele>9.933</ele>
        <time>2011-08-11T09:02:41Z</time>
      </trkpt>
      <trkpt lat="46.73891" lon="-1.93635">
        <ele>10.322</ele>
        <time>2011-08-11T09:03:06Z</time>
      </trkpt>
      <trkpt lat="46.73934" lon="-1.93938">
        <ele>9.246</ele>
        <time>2011-08-11T09:03:37Z</time>
      </trkpt>
      <trkpt lat="46.73958" lon="-1.94114">
        <ele>6.902</ele>
        <time>2011-08-11T09:03:54Z</time>
      </trkpt>
      <trkpt lat="46.73962" lon="-1.94149">
        <ele>6.643</ele>
        <time>2011-08-11T09:03:59Z</time>
      </trkpt>
      <trkpt lat="46.73916" lon="-1.94335">
        <ele>4.301</ele>
        <time>2011-08-11T09:04:16Z</time>
      </trkpt>
      <trkpt lat="46.73852" lon="-1.94492">
        <ele>1.692</ele>
        <time>2011-08-11T09:04:32Z</time>
      </trkpt>
      <trkpt lat="46.73695" lon="-1.94706">
        <ele>-0.344</ele>
        <time>2011-08-11T09:04:58Z</time>
      </trkpt>
      <trkpt lat="46.73593" lon="-1.9485">
        <ele>0.008</ele>
        <time>2011-08-11T09:05:16Z</time>
      </trkpt>
      <trkpt lat="46.73518" lon="-1.94983">
        <ele>-0.228</ele>
        <time>2011-08-11T09:05:32Z</time>
      </trkpt>
      <trkpt lat="46.73493" lon="-1.95042">
        <ele>0.056</ele>
        <time>2011-08-11T09:05:39Z</time>
      </trkpt>
      <trkpt lat="46.7349" lon="-1.9505">
        <ele>1.319</ele>
        <time>2011-08-11T09:05:42Z</time>
      </trkpt>
      <trkpt lat="46.73462" lon="-1.95059">
        <ele>0.67</ele>
        <time>2011-08-11T09:05:46Z</time>
      </trkpt>
      <trkpt lat="46.73331" lon="-1.95037">
        <ele>-0.095</ele>
        <time>2011-08-11T09:06:04Z</time>
      </trkpt>
      <trkpt lat="46.73167" lon="-1.95006">
        <ele>-0.478</ele>
        <time>2011-08-11T09:06:25Z</time>
      </trkpt>
      <trkpt lat="46.73002" lon="-1.9496">
        <ele>0.779</ele>
        <time>2011-08-11T09:06:47Z</time>
      </trkpt>
      <trkpt lat="46.72944" lon="-1.94936">
        <ele>1.472</ele>
        <time>2011-08-11T09:06:55Z</time>
      </trkpt>
      <trkpt lat="46.72905" lon="-1.94925">
        <ele>1.817</ele>
        <time>2011-08-11T09:07:01Z</time>
      </trkpt>
      <trkpt lat="46.72899" lon="-1.94923">
        <ele>2.166</ele>
        <time>2011-08-11T09:07:02Z</time>
      </trkpt>
      <trkpt lat="46.72864" lon="-1.94922">
        <ele>2.012</ele>
        <time>2011-08-11T09:07:08Z</time>
      </trkpt>
      <trkpt lat="46.72833" lon="-1.94933">
        <ele>1.764</ele>
        <time>2011-08-11T09:07:14Z</time>
      </trkpt>
      <trkpt lat="46.72816" lon="-1.94943">
        <ele>2.225</ele>
        <time>2011-08-11T09:07:20Z</time>
      </trkpt>
      <trkpt lat="46.72803" lon="-1.9496">
        <ele>3.256</ele>
        <time>2011-08-11T09:07:28Z</time>
      </trkpt>
      <trkpt lat="46.72786" lon="-1.94969">
        <ele>2.865</ele>
        <time>2011-08-11T09:07:35Z</time>
      </trkpt>
      <trkpt lat="46.72764" lon="-1.94964">
        <ele>2.136</ele>
        <time>2011-08-11T09:07:40Z</time>
      </trkpt>
      <trkpt lat="46.72739" lon="-1.94948">
        <ele>2.113</ele>
        <time>2011-08-11T09:07:45Z</time>
      </trkpt>
      <trkpt lat="46.72726" lon="-1.94943">
        <ele>3.065</ele>
        <time>2011-08-11T09:07:50Z</time>
      </trkpt>
      <trkpt lat="46.72709" lon="-1.9496">
        <ele>3.096</ele>
        <time>2011-08-11T09:07:53Z</time>
      </trkpt>
      <trkpt lat="46.72667" lon="-1.94949">
        <ele>1.33</ele>
        <time>2011-08-11T09:08:02Z</time>
      </trkpt>
      <trkpt lat="46.72577" lon="-1.94947">
        <ele>2.763</ele>
        <time>2011-08-11T09:08:16Z</time>
      </trkpt>
      <trkpt lat="46.72518" lon="-1.94931">
        <ele>4.256</ele>
        <time>2011-08-11T09:08:29Z</time>
      </trkpt>
      <trkpt lat="46.72488" lon="-1.94917">
        <ele>4.173</ele>
        <time>2011-08-11T09:08:42Z</time>
      </trkpt>
      <trkpt lat="46.72431" lon="-1.94902">
        <ele>3.974</ele>
        <time>2011-08-11T09:08:57Z</time>
      </trkpt>
      <trkpt lat="46.7238" lon="-1.94903">
        <ele>4.226</ele>
        <time>2011-08-11T09:09:08Z</time>
      </trkpt>
      <trkpt lat="46.72348" lon="-1.94954">
        <ele>3.276</ele>
        <time>2011-08-11T09:09:17Z</time>
      </trkpt>
      <trkpt lat="46.72352" lon="-1.94983">
        <ele>2.386</ele>
        <time>2011-08-11T09:09:20Z</time>
      </trkpt>
      <trkpt lat="46.72409" lon="-1.95191">
        <ele>4.003</ele>
        <time>2011-08-11T09:09:46Z</time>
      </trkpt>
      <trkpt lat="46.72438" lon="-1.95407">
        <ele>2.207</ele>
        <time>2011-08-11T09:10:09Z</time>
      </trkpt>
      <trkpt lat="46.72441" lon="-1.95553">
        <ele>3.962</ele>
        <time>2011-08-11T09:10:26Z</time>
      </trkpt>
      <trkpt lat="46.72451" lon="-1.95674">
        <ele>1.488</ele>
        <time>2011-08-11T09:10:39Z</time>
      </trkpt>
      <trkpt lat="46.7252" lon="-1.95872">
        <ele>1.211</ele>
        <time>2011-08-11T09:11:01Z</time>
      </trkpt>
      <trkpt lat="46.72569" lon="-1.95993">
        <ele>-0.515</ele>
        <time>2011-08-11T09:11:15Z</time>
      </trkpt>
      <trkpt lat="46.72619" lon="-1.96114">
        <ele>-0.466</ele>
        <time>2011-08-11T09:11:28Z</time>
      </trkpt>
      <trkpt lat="46.72698" lon="-1.96262">
        <ele>0.428</ele>
        <time>2011-08-11T09:11:45Z</time>
      </trkpt>
      <trkpt lat="46.72729" lon="-1.96382">
        <ele>0.227</ele>
        <time>2011-08-11T09:11:56Z</time>
      </trkpt>
      <trkpt lat="46.72812" lon="-1.96561">
        <ele>0.318</ele>
        <time>2011-08-11T09:12:16Z</time>
      </trkpt>
      <trkpt lat="46.72902" lon="-1.96724">
        <ele>-0.132</ele>
        <time>2011-08-11T09:12:35Z</time>
      </trkpt>
      <trkpt lat="46.72984" lon="-1.96916">
        <ele>-0.543</ele>
        <time>2011-08-11T09:12:54Z</time>
      </trkpt>
      <trkpt lat="46.73005" lon="-1.96952">
        <ele>0.313</ele>
        <time>2011-08-11T09:12:58Z</time>
      </trkpt>
      <trkpt lat="46.73078" lon="-1.97063">
        <ele>0.736</ele>
        <time>2011-08-11T09:13:11Z</time>
      </trkpt>
      <trkpt lat="46.73159" lon="-1.97184">
        <ele>1.562</ele>
        <time>2011-08-11T09:13:27Z</time>
      </trkpt>
      <trkpt lat="46.73192" lon="-1.97233">
        <ele>1.166</ele>
        <time>2011-08-11T09:13:34Z</time>
      </trkpt>
      <trkpt lat="46.73238" lon="-1.97272">
        <ele>2.041</ele>
        <time>2011-08-11T09:13:42Z</time>
      </trkpt>
      <trkpt lat="46.73329" lon="-1.97316">
        <ele>0.988</ele>
        <time>2011-08-11T09:13:55Z</time>
      </trkpt>
      <trkpt lat="46.73417" lon="-1.97376">
        <ele>-0.399</ele>
        <time>2011-08-11T09:14:10Z</time>
      </trkpt>
      <trkpt lat="46.73568" lon="-1.97523">
        <ele>-0.042</ele>
        <time>2011-08-11T09:14:28Z</time>
      </trkpt>
      <trkpt lat="46.73588" lon="-1.97544">
        <ele>2.159</ele>
        <time>2011-08-11T09:14:34Z</time>
      </trkpt>
      <trkpt lat="46.73588" lon="-1.97544">
        <ele>1.785</ele>
        <time>2011-08-11T09:14:59Z</time>
      </trkpt>
      <trkpt lat="46.73588" lon="-1.97544">
        <ele>1.94</ele>
        <time>2011-08-11T09:15:22Z</time>
      </trkpt>
      <trkpt lat="46.7365" lon="-1.97601">
        <ele>2.968</ele>
        <time>2011-08-11T09:15:34Z</time>
      </trkpt>
      <trkpt lat="46.73667" lon="-1.97617">
        <ele>1.289</ele>
        <time>2011-08-11T09:15:37Z</time>
      </trkpt>
      <trkpt lat="46.73765" lon="-1.97733">
        <ele>1.337</ele>
        <time>2011-08-11T09:15:56Z</time>
      </trkpt>
      <trkpt lat="46.73773" lon="-1.9775">
        <ele>0.226</ele>
        <time>2011-08-11T09:15:58Z</time>
      </trkpt>
      <trkpt lat="46.73854" lon="-1.97919">
        <ele>-1.895</ele>
        <time>2011-08-11T09:16:17Z</time>
      </trkpt>
      <trkpt lat="46.73914" lon="-1.98095">
        <ele>-3.304</ele>
        <time>2011-08-11T09:16:33Z</time>
      </trkpt>
      <trkpt lat="46.73971" lon="-1.98285">
        <ele>-3.398</ele>
        <time>2011-08-11T09:16:49Z</time>
      </trkpt>
      <trkpt lat="46.74005" lon="-1.98398">
        <ele>-3.931</ele>
        <time>2011-08-11T09:16:59Z</time>
      </trkpt>
      <trkpt lat="46.74059" lon="-1.98568">
        <ele>-2.75</ele>
        <time>2011-08-11T09:17:15Z</time>
      </trkpt>
      <trkpt lat="46.74115" lon="-1.98706">
        <ele>-1.431</ele>
        <time>2011-08-11T09:17:30Z</time>
      </trkpt>
      <trkpt lat="46.74118" lon="-1.98715">
        <ele>-1.175</ele>
        <time>2011-08-11T09:17:31Z</time>
      </trkpt>
      <trkpt lat="46.74164" lon="-1.98885">
        <ele>-1.147</ele>
        <time>2011-08-11T09:17:51Z</time>
      </trkpt>
      <trkpt lat="46.74191" lon="-1.99115">
        <ele>-2.323</ele>
        <time>2011-08-11T09:18:16Z</time>
      </trkpt>
      <trkpt lat="46.74194" lon="-1.99153">
        <ele>-3.555</ele>
        <time>2011-08-11T09:18:20Z</time>
      </trkpt>
      <trkpt lat="46.74202" lon="-1.99256">
        <ele>-2.202</ele>
        <time>2011-08-11T09:18:31Z</time>
      </trkpt>
      <trkpt lat="46.74202" lon="-1.99277">
        <ele>-2.124</ele>
        <time>2011-08-11T09:18:34Z</time>
      </trkpt>
      <trkpt lat="46.74202" lon="-1.99277">
        <ele>-0.967</ele>
        <time>2011-08-11T09:18:37Z</time>
      </trkpt>
      <trkpt lat="46.74206" lon="-1.9932">
        <ele>-1.462</ele>
        <time>2011-08-11T09:18:39Z</time>
      </trkpt>
      <trkpt lat="46.74215" lon="-1.99352">
        <ele>-2.203</ele>
        <time>2011-08-11T09:18:42Z</time>
      </trkpt>
      <trkpt lat="46.74207" lon="-1.99477">
        <ele>-1.818</ele>
        <time>2011-08-11T09:18:55Z</time>
      </trkpt>
      <trkpt lat="46.74176" lon="-1.99592">
        <ele>-1.759</ele>
        <time>2011-08-11T09:19:07Z</time>
      </trkpt>
      <trkpt lat="46.7415" lon="-1.99752">
        <ele>-3.298</ele>
        <time>2011-08-11T09:19:22Z</time>
      </trkpt>
      <trkpt lat="46.74138" lon="-1.99992">
        <ele>-2.605</ele>
        <time>2011-08-11T09:19:45Z</time>
      </trkpt>
      <trkpt lat="46.7413" lon="-2.00074">
        <ele>-3.22</ele>
        <time>2011-08-11T09:19:53Z</time>
      </trkpt>
      <trkpt lat="46.74125" lon="-2.0011">
        <ele>-2.625</ele>
        <time>2011-08-11T09:19:59Z</time>
      </trkpt>
      <trkpt lat="46.74081" lon="-2.003">
        <ele>-2.951</ele>
        <time>2011-08-11T09:20:17Z</time>
      </trkpt>
      <trkpt lat="46.74068" lon="-2.00365">
        <ele>-2.849</ele>
        <time>2011-08-11T09:20:24Z</time>
      </trkpt>
      <trkpt lat="46.74075" lon="-2.00433">
        <ele>-2.616</ele>
        <time>2011-08-11T09:20:31Z</time>
      </trkpt>
      <trkpt lat="46.74103" lon="-2.00493">
        <ele>-3.066</ele>
        <time>2011-08-11T09:20:38Z</time>
      </trkpt>
      <trkpt lat="46.74204" lon="-2.00646">
        <ele>-3.843</ele>
        <time>2011-08-11T09:20:58Z</time>
      </trkpt>
      <trkpt lat="46.74276" lon="-2.00759">
        <ele>-3.422</ele>
        <time>2011-08-11T09:21:14Z</time>
      </trkpt>
      <trkpt lat="46.74345" lon="-2.00862">
        <ele>-3.702</ele>
        <time>2011-08-11T09:21:28Z</time>
      </trkpt>
      <trkpt lat="46.74467" lon="-2.00975">
        <ele>-1.71</ele>
        <time>2011-08-11T09:21:48Z</time>
      </trkpt>
      <trkpt lat="46.74565" lon="-2.01067">
        <ele>-1.344</ele>
        <time>2011-08-11T09:22:06Z</time>
      </trkpt>
      <trkpt lat="46.74661" lon="-2.01181">
        <ele>-0.79</ele>
        <time>2011-08-11T09:22:25Z</time>
      </trkpt>
      <trkpt lat="46.74771" lon="-2.01251">
        <ele>0.393</ele>
        <time>2011-08-11T09:22:41Z</time>
      </trkpt>
      <trkpt lat="46.74857" lon="-2.01301">
        <ele>0.568</ele>
        <time>2011-08-11T09:22:57Z</time>
      </trkpt>
      <trkpt lat="46.74897" lon="-2.01325">
        <ele>-0.333</ele>
        <time>2011-08-11T09:23:08Z</time>
      </trkpt>
      <trkpt lat="46.74943" lon="-2.01353">
        <ele>-0.846</ele>
        <time>2011-08-11T09:23:16Z</time>
      </trkpt>
      <trkpt lat="46.74975" lon="-2.01398">
        <ele>-2.887</ele>
        <time>2011-08-11T09:23:24Z</time>
      </trkpt>
      <trkpt lat="46.7503" lon="-2.01491">
        <ele>-2.899</ele>
        <time>2011-08-11T09:23:38Z</time>
      </trkpt>
      <trkpt lat="46.75061" lon="-2.01535">
        <ele>-0.582</ele>
        <time>2011-08-11T09:23:50Z</time>
      </trkpt>
      <trkpt lat="46.75094" lon="-2.01582">
        <ele>-0.531</ele>
        <time>2011-08-11T09:24:10Z</time>
      </trkpt>
      <trkpt lat="46.75117" lon="-2.01584">
        <ele>-1.079</ele>
        <time>2011-08-11T09:24:19Z</time>
      </trkpt>
      <trkpt lat="46.75135" lon="-2.01602">
        <ele>-2.787</ele>
        <time>2011-08-11T09:24:23Z</time>
      </trkpt>
      <trkpt lat="46.75135" lon="-2.01613">
        <ele>-2.753</ele>
        <time>2011-08-11T09:24:24Z</time>
      </trkpt>
      <trkpt lat="46.7513" lon="-2.01622">
        <ele>-2.662</ele>
        <time>2011-08-11T09:24:26Z</time>
      </trkpt>
      <trkpt lat="46.75215" lon="-2.01758">
        <ele>-2.87</ele>
        <time>2011-08-11T09:24:43Z</time>
      </trkpt>
      <trkpt lat="46.75343" lon="-2.01947">
        <ele>-4.145</ele>
        <time>2011-08-11T09:25:06Z</time>
      </trkpt>
      <trkpt lat="46.75429" lon="-2.02058">
        <ele>-3.539</ele>
        <time>2011-08-11T09:25:24Z</time>
      </trkpt>
      <trkpt lat="46.75493" lon="-2.02192">
        <ele>-3.9</ele>
        <time>2011-08-11T09:25:38Z</time>
      </trkpt>
      <trkpt lat="46.75499" lon="-2.0221">
        <ele>-3.18</ele>
        <time>2011-08-11T09:25:40Z</time>
      </trkpt>
      <trkpt lat="46.75533" lon="-2.02259">
        <ele>-3.621</ele>
        <time>2011-08-11T09:25:47Z</time>
      </trkpt>
      <trkpt lat="46.75664" lon="-2.02375">
        <ele>-3.158</ele>
        <time>2011-08-11T09:26:10Z</time>
      </trkpt>
      <trkpt lat="46.75721" lon="-2.02441">
        <ele>-1.301</ele>
        <time>2011-08-11T09:26:21Z</time>
      </trkpt>
      <trkpt lat="46.75752" lon="-2.0246">
        <ele>-1.74</ele>
        <time>2011-08-11T09:26:26Z</time>
      </trkpt>
      <trkpt lat="46.75855" lon="-2.02478">
        <ele>-0.896</ele>
        <time>2011-08-11T09:26:43Z</time>
      </trkpt>
      <trkpt lat="46.7593" lon="-2.02508">
        <ele>-0.66</ele>
        <time>2011-08-11T09:26:58Z</time>
      </trkpt>
      <trkpt lat="46.75955" lon="-2.02527">
        <ele>0.482</ele>
        <time>2011-08-11T09:27:05Z</time>
      </trkpt>
      <trkpt lat="46.75973" lon="-2.02542">
        <ele>1.716</ele>
        <time>2011-08-11T09:27:16Z</time>
      </trkpt>
      <trkpt lat="46.75977" lon="-2.02547">
        <ele>1.823</ele>
        <time>2011-08-11T09:27:19Z</time>
      </trkpt>
      <trkpt lat="46.76012" lon="-2.02603">
        <ele>0.744</ele>
        <time>2011-08-11T09:27:31Z</time>
      </trkpt>
      <trkpt lat="46.76065" lon="-2.02672">
        <ele>0.372</ele>
        <time>2011-08-11T09:27:47Z</time>
      </trkpt>
      <trkpt lat="46.76084" lon="-2.02687">
        <ele>-0.63</ele>
        <time>2011-08-11T09:27:48Z</time>
      </trkpt>
      <trkpt lat="46.76166" lon="-2.0275">
        <ele>-1.834</ele>
        <time>2011-08-11T09:28:01Z</time>
      </trkpt>
      <trkpt lat="46.76215" lon="-2.02788">
        <ele>-0.231</ele>
        <time>2011-08-11T09:28:09Z</time>
      </trkpt>
      <trkpt lat="46.76322" lon="-2.02891">
        <ele>-1.772</ele>
        <time>2011-08-11T09:28:25Z</time>
      </trkpt>
      <trkpt lat="46.76333" lon="-2.02904">
        <ele>-1.112</ele>
        <time>2011-08-11T09:28:27Z</time>
      </trkpt>
      <trkpt lat="46.76353" lon="-2.02938">
        <ele>-0.6</ele>
        <time>2011-08-11T09:28:32Z</time>
      </trkpt>
      <trkpt lat="46.76379" lon="-2.0306">
        <ele>-0.426</ele>
        <time>2011-08-11T09:28:45Z</time>
      </trkpt>
      <trkpt lat="46.76386" lon="-2.03118">
        <ele>-1.319</ele>
        <time>2011-08-11T09:28:51Z</time>
      </trkpt>
      <trkpt lat="46.76434" lon="-2.03233">
        <ele>-1.014</ele>
        <time>2011-08-11T09:29:04Z</time>
      </trkpt>
      <trkpt lat="46.7651" lon="-2.0342">
        <ele>-1.039</ele>
        <time>2011-08-11T09:29:24Z</time>
      </trkpt>
      <trkpt lat="46.76545" lon="-2.03485">
        <ele>-0.484</ele>
        <time>2011-08-11T09:29:32Z</time>
      </trkpt>
      <trkpt lat="46.76567" lon="-2.03509">
        <ele>-1.094</ele>
        <time>2011-08-11T09:29:36Z</time>
      </trkpt>
      <trkpt lat="46.76657" lon="-2.03575">
        <ele>-0.824</ele>
        <time>2011-08-11T09:29:50Z</time>
      </trkpt>
      <trkpt lat="46.76708" lon="-2.03569">
        <ele>-1.254</ele>
        <time>2011-08-11T09:29:58Z</time>
      </trkpt>
      <trkpt lat="46.76788" lon="-2.03445">
        <ele>-0.646</ele>
        <time>2011-08-11T09:30:12Z</time>
      </trkpt>
      <trkpt lat="46.76837" lon="-2.03401">
        <ele>-0.504</ele>
        <time>2011-08-11T09:30:21Z</time>
      </trkpt>
      <trkpt lat="46.76853" lon="-2.03388">
        <ele>-0.929</ele>
        <time>2011-08-11T09:30:24Z</time>
      </trkpt>
      <trkpt lat="46.76903" lon="-2.0332">
        <ele>-1.532</ele>
        <time>2011-08-11T09:30:36Z</time>
      </trkpt>
      <trkpt lat="46.7698" lon="-2.03193">
        <ele>-1.527</ele>
        <time>2011-08-11T09:30:52Z</time>
      </trkpt>
      <trkpt lat="46.77022" lon="-2.03178">
        <ele>-2.146</ele>
        <time>2011-08-11T09:31:00Z</time>
      </trkpt>
      <trkpt lat="46.77046" lon="-2.03212">
        <ele>-3.065</ele>
        <time>2011-08-11T09:31:04Z</time>
      </trkpt>
      <trkpt lat="46.77154" lon="-2.03418">
        <ele>-3.434</ele>
        <time>2011-08-11T09:31:26Z</time>
      </trkpt>
      <trkpt lat="46.77263" lon="-2.036">
        <ele>-4.655</ele>
        <time>2011-08-11T09:31:47Z</time>
      </trkpt>
      <trkpt lat="46.77275" lon="-2.03612">
        <ele>-3.428</ele>
        <time>2011-08-11T09:31:50Z</time>
      </trkpt>
      <trkpt lat="46.7739" lon="-2.03713">
        <ele>-4.627</ele>
        <time>2011-08-11T09:32:06Z</time>
      </trkpt>
      <trkpt lat="46.77524" lon="-2.03763">
        <ele>-4.15</ele>
        <time>2011-08-11T09:32:24Z</time>
      </trkpt>
      <trkpt lat="46.77658" lon="-2.03812">
        <ele>-2.749</ele>
        <time>2011-08-11T09:32:44Z</time>
      </trkpt>
      <trkpt lat="46.77803" lon="-2.03878">
        <ele>-3.889</ele>
        <time>2011-08-11T09:33:05Z</time>
      </trkpt>
      <trkpt lat="46.77887" lon="-2.03935">
        <ele>-4.16</ele>
        <time>2011-08-11T09:33:18Z</time>
      </trkpt>
      <trkpt lat="46.77935" lon="-2.03935">
        <ele>-1.921</ele>
        <time>2011-08-11T09:33:25Z</time>
      </trkpt>
      <trkpt lat="46.78006" lon="-2.03914">
        <ele>-1.357</ele>
        <time>2011-08-11T09:33:37Z</time>
      </trkpt>
      <trkpt lat="46.78093" lon="-2.03866">
        <ele>-1.906</ele>
        <time>2011-08-11T09:33:50Z</time>
      </trkpt>
      <trkpt lat="46.7811" lon="-2.03854">
        <ele>-1.356</ele>
        <time>2011-08-11T09:33:53Z</time>
      </trkpt>
      <trkpt lat="46.78132" lon="-2.03841">
        <ele>-0.948</ele>
        <time>2011-08-11T09:33:57Z</time>
      </trkpt>
      <trkpt lat="46.78209" lon="-2.03797">
        <ele>-1.225</ele>
        <time>2011-08-11T09:34:09Z</time>
      </trkpt>
      <trkpt lat="46.78223" lon="-2.03792">
        <ele>-0.493</ele>
        <time>2011-08-11T09:34:13Z</time>
      </trkpt>
      <trkpt lat="46.78357" lon="-2.03665">
        <ele>-1.389</ele>
        <time>2011-08-11T09:34:32Z</time>
      </trkpt>
      <trkpt lat="46.78385" lon="-2.03643">
        <ele>-0.776</ele>
        <time>2011-08-11T09:34:37Z</time>
      </trkpt>
      <trkpt lat="46.78394" lon="-2.03637">
        <ele>-0.907</ele>
        <time>2011-08-11T09:34:39Z</time>
      </trkpt>
      <trkpt lat="46.78399" lon="-2.03633">
        <ele>-0.64</ele>
        <time>2011-08-11T09:34:42Z</time>
      </trkpt>
      <trkpt lat="46.78456" lon="-2.03602">
        <ele>-1.337</ele>
        <time>2011-08-11T09:34:53Z</time>
      </trkpt>
      <trkpt lat="46.78475" lon="-2.03593">
        <ele>-2.979</ele>
        <time>2011-08-11T09:34:56Z</time>
      </trkpt>
      <trkpt lat="46.78497" lon="-2.03584">
        <ele>-2.051</ele>
        <time>2011-08-11T09:34:59Z</time>
      </trkpt>
      <trkpt lat="46.78562" lon="-2.03599">
        <ele>-1.949</ele>
        <time>2011-08-11T09:35:09Z</time>
      </trkpt>
      <trkpt lat="46.78585" lon="-2.03602">
        <ele>-2.638</ele>
        <time>2011-08-11T09:35:13Z</time>
      </trkpt>
      <trkpt lat="46.78653" lon="-2.03555">
        <ele>-2.929</ele>
        <time>2011-08-11T09:35:23Z</time>
      </trkpt>
      <trkpt lat="46.7873" lon="-2.03479">
        <ele>-2.223</ele>
        <time>2011-08-11T09:35:35Z</time>
      </trkpt>
      <trkpt lat="46.78818" lon="-2.03366">
        <ele>-2.417</ele>
        <time>2011-08-11T09:35:51Z</time>
      </trkpt>
      <trkpt lat="46.78836" lon="-2.03344">
        <ele>-1.271</ele>
        <time>2011-08-11T09:35:55Z</time>
      </trkpt>
      <trkpt lat="46.78841" lon="-2.03337">
        <ele>-0.56</ele>
        <time>2011-08-11T09:35:57Z</time>
      </trkpt>
      <trkpt lat="46.78857" lon="-2.03337">
        <ele>-1.62</ele>
        <time>2011-08-11T09:36:02Z</time>
      </trkpt>
      <trkpt lat="46.78925" lon="-2.0345">
        <ele>-3.648</ele>
        <time>2011-08-11T09:36:17Z</time>
      </trkpt>
      <trkpt lat="46.78982" lon="-2.03593">
        <ele>-2.078</ele>
        <time>2011-08-11T09:36:35Z</time>
      </trkpt>
      <trkpt lat="46.79" lon="-2.03748">
        <ele>-1.434</ele>
        <time>2011-08-11T09:36:52Z</time>
      </trkpt>
      <trkpt lat="46.78987" lon="-2.0394">
        <ele>-2.588</ele>
        <time>2011-08-11T09:37:12Z</time>
      </trkpt>
      <trkpt lat="46.7899" lon="-2.03969">
        <ele>-4.475</ele>
        <time>2011-08-11T09:37:15Z</time>
      </trkpt>
      <trkpt lat="46.78998" lon="-2.0409">
        <ele>-4.454</ele>
        <time>2011-08-11T09:37:28Z</time>
      </trkpt>
      <trkpt lat="46.79027" lon="-2.04366">
        <ele>-4.143</ele>
        <time>2011-08-11T09:37:57Z</time>
      </trkpt>
      <trkpt lat="46.79065" lon="-2.04616">
        <ele>-3.636</ele>
        <time>2011-08-11T09:38:22Z</time>
      </trkpt>
      <trkpt lat="46.79129" lon="-2.0488">
        <ele>-5.627</ele>
        <time>2011-08-11T09:38:47Z</time>
      </trkpt>
      <trkpt lat="46.79165" lon="-2.0504">
        <ele>-3.877</ele>
        <time>2011-08-11T09:39:05Z</time>
      </trkpt>
      <trkpt lat="46.79197" lon="-2.05277">
        <ele>-3.632</ele>
        <time>2011-08-11T09:39:34Z</time>
      </trkpt>
      <trkpt lat="46.79199" lon="-2.053">
        <ele>-3.25</ele>
        <time>2011-08-11T09:39:37Z</time>
      </trkpt>
      <trkpt lat="46.79202" lon="-2.05323">
        <ele>-2.843</ele>
        <time>2011-08-11T09:39:40Z</time>
      </trkpt>
      <trkpt lat="46.79197" lon="-2.05351">
        <ele>-3.608</ele>
        <time>2011-08-11T09:39:44Z</time>
      </trkpt>
      <trkpt lat="46.79129" lon="-2.05464">
        <ele>-3.215</ele>
        <time>2011-08-11T09:40:01Z</time>
      </trkpt>
      <trkpt lat="46.79114" lon="-2.05505">
        <ele>-3.48</ele>
        <time>2011-08-11T09:40:06Z</time>
      </trkpt>
      <trkpt lat="46.79107" lon="-2.05526">
        <ele>-3.117</ele>
        <time>2011-08-11T09:40:10Z</time>
      </trkpt>
      <trkpt lat="46.7911" lon="-2.05567">
        <ele>-3.359</ele>
        <time>2011-08-11T09:40:13Z</time>
      </trkpt>
      <trkpt lat="46.79107" lon="-2.05586">
        <ele>-3.135</ele>
        <time>2011-08-11T09:40:16Z</time>
      </trkpt>
      <trkpt lat="46.79099" lon="-2.05614">
        <ele>-2.81</ele>
        <time>2011-08-11T09:40:21Z</time>
      </trkpt>
      <trkpt lat="46.79058" lon="-2.05729">
        <ele>-0.933</ele>
        <time>2011-08-11T09:40:36Z</time>
      </trkpt>
      <trkpt lat="46.79036" lon="-2.05892">
        <ele>1.309</ele>
        <time>2011-08-11T09:40:56Z</time>
      </trkpt>
      <trkpt lat="46.79034" lon="-2.06042">
        <ele>3.425</ele>
        <time>2011-08-11T09:41:16Z</time>
      </trkpt>
      <trkpt lat="46.79041" lon="-2.06191">
        <ele>3.463</ele>
        <time>2011-08-11T09:41:37Z</time>
      </trkpt>
      <trkpt lat="46.79043" lon="-2.06213">
        <ele>3.834</ele>
        <time>2011-08-11T09:41:41Z</time>
      </trkpt>
      <trkpt lat="46.79051" lon="-2.06225">
        <ele>3.68</ele>
        <time>2011-08-11T09:41:44Z</time>
      </trkpt>
      <trkpt lat="46.79051" lon="-2.06269">
        <ele>3.57</ele>
        <time>2011-08-11T09:41:49Z</time>
      </trkpt>
      <trkpt lat="46.79043" lon="-2.06323">
        <ele>2.703</ele>
        <time>2011-08-11T09:41:55Z</time>
      </trkpt>
      <trkpt lat="46.79078" lon="-2.06443">
        <ele>3.689</ele>
        <time>2011-08-11T09:42:10Z</time>
      </trkpt>
      <trkpt lat="46.79099" lon="-2.06459">
        <ele>3.667</ele>
        <time>2011-08-11T09:42:14Z</time>
      </trkpt>
      <trkpt lat="46.791" lon="-2.06501">
        <ele>5.315</ele>
        <time>2011-08-11T09:42:19Z</time>
      </trkpt>
      <trkpt lat="46.79133" lon="-2.06586">
        <ele>3.988</ele>
        <time>2011-08-11T09:42:34Z</time>
      </trkpt>
      <trkpt lat="46.79148" lon="-2.0663">
        <ele>3.899</ele>
        <time>2011-08-11T09:42:42Z</time>
      </trkpt>
      <trkpt lat="46.79152" lon="-2.06642">
        <ele>3.679</ele>
        <time>2011-08-11T09:42:44Z</time>
      </trkpt>
      <trkpt lat="46.79172" lon="-2.06678">
        <ele>3.465</ele>
        <time>2011-08-11T09:42:50Z</time>
      </trkpt>
      <trkpt lat="46.7918" lon="-2.06698">
        <ele>2.265</ele>
        <time>2011-08-11T09:42:54Z</time>
      </trkpt>
      <trkpt lat="46.7922" lon="-2.06724">
        <ele>1.352</ele>
        <time>2011-08-11T09:42:59Z</time>
      </trkpt>
      <trkpt lat="46.79278" lon="-2.06734">
        <ele>-0.805</ele>
        <time>2011-08-11T09:43:07Z</time>
      </trkpt>
      <trkpt lat="46.79417" lon="-2.06751">
        <ele>-1.009</ele>
        <time>2011-08-11T09:43:26Z</time>
      </trkpt>
      <trkpt lat="46.79471" lon="-2.0676">
        <ele>-1.339</ele>
        <time>2011-08-11T09:43:34Z</time>
      </trkpt>
      <trkpt lat="46.79506" lon="-2.06776">
        <ele>-1.606</ele>
        <time>2011-08-11T09:43:41Z</time>
      </trkpt>
      <trkpt lat="46.79622" lon="-2.06934">
        <ele>-1.24</ele>
        <time>2011-08-11T09:44:06Z</time>
      </trkpt>
      <trkpt lat="46.79622" lon="-2.06934">
        <ele>-1.159</ele>
        <time>2011-08-11T09:44:07Z</time>
      </trkpt>
      <trkpt lat="46.79639" lon="-2.06949">
        <ele>0.107</ele>
        <time>2011-08-11T09:44:16Z</time>
      </trkpt>
      <trkpt lat="46.79648" lon="-2.06955">
        <ele>-0.366</ele>
        <time>2011-08-11T09:44:28Z</time>
      </trkpt>
      <trkpt lat="46.79648" lon="-2.06955">
        <ele>-0.365</ele>
        <time>2011-08-11T09:44:29Z</time>
      </trkpt>
      <trkpt lat="46.7967" lon="-2.06984">
        <ele>-0.899</ele>
        <time>2011-08-11T09:44:35Z</time>
      </trkpt>
      <trkpt lat="46.79698" lon="-2.07049">
        <ele>-1.629</ele>
        <time>2011-08-11T09:44:45Z</time>
      </trkpt>
      <trkpt lat="46.79756" lon="-2.07138">
        <ele>-1.144</ele>
        <time>2011-08-11T09:45:00Z</time>
      </trkpt>
      <trkpt lat="46.79751" lon="-2.07162">
        <ele>-1.096</ele>
        <time>2011-08-11T09:45:04Z</time>
      </trkpt>
      <trkpt lat="46.79745" lon="-2.07174">
        <ele>-1.342</ele>
        <time>2011-08-11T09:45:06Z</time>
      </trkpt>
      <trkpt lat="46.79739" lon="-2.07194">
        <ele>-1.826</ele>
        <time>2011-08-11T09:45:10Z</time>
      </trkpt>
      <trkpt lat="46.79761" lon="-2.07334">
        <ele>-1.605</ele>
        <time>2011-08-11T09:45:26Z</time>
      </trkpt>
      <trkpt lat="46.79778" lon="-2.07431">
        <ele>-1.028</ele>
        <time>2011-08-11T09:45:37Z</time>
      </trkpt>
      <trkpt lat="46.79802" lon="-2.07575">
        <ele>-0.996</ele>
        <time>2011-08-11T09:45:54Z</time>
      </trkpt>
      <trkpt lat="46.79835" lon="-2.07708">
        <ele>1.418</ele>
        <time>2011-08-11T09:46:12Z</time>
      </trkpt>
      <trkpt lat="46.79841" lon="-2.07736">
        <ele>1.301</ele>
        <time>2011-08-11T09:46:16Z</time>
      </trkpt>
      <trkpt lat="46.79869" lon="-2.07832">
        <ele>1.746</ele>
        <time>2011-08-11T09:46:29Z</time>
      </trkpt>
      <trkpt lat="46.79904" lon="-2.0795">
        <ele>-1.428</ele>
        <time>2011-08-11T09:46:43Z</time>
      </trkpt>
      <trkpt lat="46.79917" lon="-2.08039">
        <ele>-2.168</ele>
        <time>2011-08-11T09:46:52Z</time>
      </trkpt>
      <trkpt lat="46.7994" lon="-2.08191">
        <ele>-1.908</ele>
        <time>2011-08-11T09:47:08Z</time>
      </trkpt>
      <trkpt lat="46.79958" lon="-2.08249">
        <ele>-2.262</ele>
        <time>2011-08-11T09:47:13Z</time>
      </trkpt>
      <trkpt lat="46.80029" lon="-2.08359">
        <ele>-2.541</ele>
        <time>2011-08-11T09:47:28Z</time>
      </trkpt>
      <trkpt lat="46.80067" lon="-2.08435">
        <ele>-2.626</ele>
        <time>2011-08-11T09:47:37Z</time>
      </trkpt>
      <trkpt lat="46.80099" lon="-2.08528">
        <ele>-2.476</ele>
        <time>2011-08-11T09:47:48Z</time>
      </trkpt>
      <trkpt lat="46.80102" lon="-2.08545">
        <ele>-1.966</ele>
        <time>2011-08-11T09:47:50Z</time>
      </trkpt>
      <trkpt lat="46.80128" lon="-2.08648">
        <ele>-2.163</ele>
        <time>2011-08-11T09:48:02Z</time>
      </trkpt>
      <trkpt lat="46.8015" lon="-2.08703">
        <ele>-3.216</ele>
        <time>2011-08-11T09:48:09Z</time>
      </trkpt>
      <trkpt lat="46.80203" lon="-2.08841">
        <ele>-2.847</ele>
        <time>2011-08-11T09:48:25Z</time>
      </trkpt>
      <trkpt lat="46.80249" lon="-2.09049">
        <ele>-2.746</ele>
        <time>2011-08-11T09:48:47Z</time>
      </trkpt>
      <trkpt lat="46.80272" lon="-2.09195">
        <ele>-2.823</ele>
        <time>2011-08-11T09:49:02Z</time>
      </trkpt>
      <trkpt lat="46.80319" lon="-2.09328">
        <ele>-2.306</ele>
        <time>2011-08-11T09:49:17Z</time>
      </trkpt>
      <trkpt lat="46.80383" lon="-2.09466">
        <ele>-3.502</ele>
        <time>2011-08-11T09:49:34Z</time>
      </trkpt>
      <trkpt lat="46.80429" lon="-2.0962">
        <ele>-1.571</ele>
        <time>2011-08-11T09:49:52Z</time>
      </trkpt>
      <trkpt lat="46.80472" lon="-2.09796">
        <ele>-2.191</ele>
        <time>2011-08-11T09:50:14Z</time>
      </trkpt>
      <trkpt lat="46.80497" lon="-2.09941">
        <ele>-0.577</ele>
        <time>2011-08-11T09:50:30Z</time>
      </trkpt>
      <trkpt lat="46.80501" lon="-2.09961">
        <ele>-0.509</ele>
        <time>2011-08-11T09:50:33Z</time>
      </trkpt>
      <trkpt lat="46.80512" lon="-2.1002">
        <ele>-0.568</ele>
        <time>2011-08-11T09:50:41Z</time>
      </trkpt>
      <trkpt lat="46.80525" lon="-2.1009">
        <ele>-1.819</ele>
        <time>2011-08-11T09:50:49Z</time>
      </trkpt>
      <trkpt lat="46.80559" lon="-2.10221">
        <ele>-1.704</ele>
        <time>2011-08-11T09:51:04Z</time>
      </trkpt>
      <trkpt lat="46.80577" lon="-2.10286">
        <ele>-1.379</ele>
        <time>2011-08-11T09:51:11Z</time>
      </trkpt>
      <trkpt lat="46.80579" lon="-2.10295">
        <ele>-1.332</ele>
        <time>2011-08-11T09:51:12Z</time>
      </trkpt>
      <trkpt lat="46.80596" lon="-2.10353">
        <ele>-0.437</ele>
        <time>2011-08-11T09:51:20Z</time>
      </trkpt>
      <trkpt lat="46.80625" lon="-2.10472">
        <ele>-0.511</ele>
        <time>2011-08-11T09:51:36Z</time>
      </trkpt>
      <trkpt lat="46.80637" lon="-2.10526">
        <ele>-0.722</ele>
        <time>2011-08-11T09:51:42Z</time>
      </trkpt>
      <trkpt lat="46.80642" lon="-2.10549">
        <ele>-0.093</ele>
        <time>2011-08-11T09:51:45Z</time>
      </trkpt>
      <trkpt lat="46.80646" lon="-2.10566">
        <ele>-1.317</ele>
        <time>2011-08-11T09:51:47Z</time>
      </trkpt>
      <trkpt lat="46.8065" lon="-2.10583">
        <ele>-0.628</ele>
        <time>2011-08-11T09:51:49Z</time>
      </trkpt>
      <trkpt lat="46.80665" lon="-2.1065">
        <ele>0.8</ele>
        <time>2011-08-11T09:51:57Z</time>
      </trkpt>
      <trkpt lat="46.80681" lon="-2.1071">
        <ele>-0.508</ele>
        <time>2011-08-11T09:52:04Z</time>
      </trkpt>
      <trkpt lat="46.80744" lon="-2.10844">
        <ele>-2.791</ele>
        <time>2011-08-11T09:52:19Z</time>
      </trkpt>
      <trkpt lat="46.80802" lon="-2.10972">
        <ele>-1.85</ele>
        <time>2011-08-11T09:52:34Z</time>
      </trkpt>
      <trkpt lat="46.80834" lon="-2.11081">
        <ele>-0.402</ele>
        <time>2011-08-11T09:52:46Z</time>
      </trkpt>
      <trkpt lat="46.80858" lon="-2.11177">
        <ele>-1.074</ele>
        <time>2011-08-11T09:52:58Z</time>
      </trkpt>
      <trkpt lat="46.80908" lon="-2.11323">
        <ele>-0.903</ele>
        <time>2011-08-11T09:53:17Z</time>
      </trkpt>
      <trkpt lat="46.80953" lon="-2.11463">
        <ele>-0.917</ele>
        <time>2011-08-11T09:53:34Z</time>
      </trkpt>
      <trkpt lat="46.81001" lon="-2.11591">
        <ele>0.243</ele>
        <time>2011-08-11T09:53:51Z</time>
      </trkpt>
      <trkpt lat="46.81026" lon="-2.11627">
        <ele>0.82</ele>
        <time>2011-08-11T09:53:57Z</time>
      </trkpt>
      <trkpt lat="46.81088" lon="-2.11712">
        <ele>1.266</ele>
        <time>2011-08-11T09:54:13Z</time>
      </trkpt>
      <trkpt lat="46.81102" lon="-2.11739">
        <ele>1.408</ele>
        <time>2011-08-11T09:54:18Z</time>
      </trkpt>
      <trkpt lat="46.81111" lon="-2.11758">
        <ele>0.129</ele>
        <time>2011-08-11T09:54:21Z</time>
      </trkpt>
      <trkpt lat="46.81167" lon="-2.11865">
        <ele>-0.377</ele>
        <time>2011-08-11T09:54:36Z</time>
      </trkpt>
      <trkpt lat="46.81229" lon="-2.11956">
        <ele>0.089</ele>
        <time>2011-08-11T09:54:49Z</time>
      </trkpt>
      <trkpt lat="46.81309" lon="-2.12097">
        <ele>-0.076</ele>
        <time>2011-08-11T09:55:08Z</time>
      </trkpt>
      <trkpt lat="46.81313" lon="-2.12105">
        <ele>0.026</ele>
        <time>2011-08-11T09:55:09Z</time>
      </trkpt>
      <trkpt lat="46.81349" lon="-2.12177">
        <ele>-1.567</ele>
        <time>2011-08-11T09:55:18Z</time>
      </trkpt>
      <trkpt lat="46.81376" lon="-2.1221">
        <ele>-1.786</ele>
        <time>2011-08-11T09:55:23Z</time>
      </trkpt>
      <trkpt lat="46.81408" lon="-2.12291">
        <ele>-2.488</ele>
        <time>2011-08-11T09:55:32Z</time>
      </trkpt>
      <trkpt lat="46.81488" lon="-2.12427">
        <ele>-1.903</ele>
        <time>2011-08-11T09:55:49Z</time>
      </trkpt>
      <trkpt lat="46.81557" lon="-2.12528">
        <ele>-1.125</ele>
        <time>2011-08-11T09:56:04Z</time>
      </trkpt>
      <trkpt lat="46.81628" lon="-2.12641">
        <ele>-2.957</ele>
        <time>2011-08-11T09:56:20Z</time>
      </trkpt>
      <trkpt lat="46.81653" lon="-2.12703">
        <ele>-1.369</ele>
        <time>2011-08-11T09:56:27Z</time>
      </trkpt>
      <trkpt lat="46.81715" lon="-2.12856">
        <ele>-1.781</ele>
        <time>2011-08-11T09:56:44Z</time>
      </trkpt>
      <trkpt lat="46.81767" lon="-2.12936">
        <ele>-1.739</ele>
        <time>2011-08-11T09:56:55Z</time>
      </trkpt>
      <trkpt lat="46.81856" lon="-2.13039">
        <ele>-1.239</ele>
        <time>2011-08-11T09:57:12Z</time>
      </trkpt>
      <trkpt lat="46.81967" lon="-2.13087">
        <ele>-1.457</ele>
        <time>2011-08-11T09:57:30Z</time>
      </trkpt>
      <trkpt lat="46.82048" lon="-2.1306">
        <ele>-0.369</ele>
        <time>2011-08-11T09:57:44Z</time>
      </trkpt>
      <trkpt lat="46.82053" lon="-2.13059">
        <ele>-0.223</ele>
        <time>2011-08-11T09:57:45Z</time>
      </trkpt>
      <trkpt lat="46.82056" lon="-2.13058">
        <ele>1.097</ele>
        <time>2011-08-11T09:57:48Z</time>
      </trkpt>
      <trkpt lat="46.82065" lon="-2.13045">
        <ele>1.698</ele>
        <time>2011-08-11T09:57:57Z</time>
      </trkpt>
      <trkpt lat="46.82068" lon="-2.1304">
        <ele>1.507</ele>
        <time>2011-08-11T09:58:00Z</time>
      </trkpt>
      <trkpt lat="46.82077" lon="-2.13047">
        <ele>0.95</ele>
        <time>2011-08-11T09:58:04Z</time>
      </trkpt>
      <trkpt lat="46.82146" lon="-2.13095">
        <ele>2.562</ele>
        <time>2011-08-11T09:58:24Z</time>
      </trkpt>
      <trkpt lat="46.82176" lon="-2.13105">
        <ele>2.234</ele>
        <time>2011-08-11T09:58:33Z</time>
      </trkpt>
      <trkpt lat="46.82189" lon="-2.13109">
        <ele>2.273</ele>
        <time>2011-08-11T09:58:37Z</time>
      </trkpt>
      <trkpt lat="46.82189" lon="-2.13109">
        <ele>1.224</ele>
        <time>2011-08-11T09:58:39Z</time>
      </trkpt>
      <trkpt lat="46.822" lon="-2.13112">
        <ele>0.979</ele>
        <time>2011-08-11T09:58:46Z</time>
      </trkpt>
      <trkpt lat="46.82189" lon="-2.13109">
        <ele>0.944</ele>
        <time>2011-08-11T09:58:50Z</time>
      </trkpt>
      <trkpt lat="46.82206" lon="-2.13114">
        <ele>0.634</ele>
        <time>2011-08-11T09:58:55Z</time>
      </trkpt>
      <trkpt lat="46.82206" lon="-2.13114">
        <ele>0.703</ele>
        <time>2011-08-11T09:59:10Z</time>
      </trkpt>
    </trkseg>
  </trk>
</gpx>